DAL2554 KBOS-RJTT
Flight info
| Callsign | DAL2554 |
|---|---|
| Flight time | N/A |
| Altitude | 34000 |
| Route | HYLND7 HYLND DCT YUL DCT ALKOK DCT 52N080W 5630N09000W 60N100W 6130N11000W 63N120W 63N130W DCT EMSOW DCT ORT J124 GKN DCT TED DCT 61N160W/N0490F360 DCT NOLTI R220 NAYLD DCT NATES/N0501F370 R220 NRKEY/N0494F380 R220 NUBDA/N0483F390 R220 NANAC/N0488F380 Y810 AKRIT Y807 POLIX |
| Aircraft | A35K/H-SDE2E3GHIJ3J4J5LM1ORWXY/LB1D1 |
Departure
| Time | 2026-05-07 20:14 |
|---|---|
| Airport | Boston Logan International Airport (KBOS) |
Arrival
| Time | N/A |
|---|---|
| Airport | Tokyo Haneda International Airport (RJTT) |
| Time | Latitude | Longitude | Altitude | Speed | Heading |
|---|---|---|---|---|---|
| 2026-05-07 19:49 | 42.37108 | -71.01934 | 33 ft | 0 kts | 213° |
| 2026-05-07 19:59 | 42.37120 | -71.01923 | 32 ft | 2 kts | 212° |
| 2026-05-07 19:59 | 42.37134 | -71.01911 | 32 ft | 2 kts | 212° |
| 2026-05-07 20:00 | 42.37148 | -71.01900 | 32 ft | 2 kts | 210° |
| 2026-05-07 20:00 | 42.37163 | -71.01890 | 32 ft | 2 kts | 204° |
| 2026-05-07 20:00 | 42.37178 | -71.01882 | 34 ft | 2 kts | 179° |
| 2026-05-07 20:00 | 42.37193 | -71.01891 | 34 ft | 2 kts | 132° |
| 2026-05-07 20:01 | 42.37204 | -71.01908 | 33 ft | 2 kts | 126° |
| 2026-05-07 20:01 | 42.37212 | -71.01927 | 35 ft | 2 kts | 111° |
| 2026-05-07 20:01 | 42.37212 | -71.01930 | 35 ft | 0 kts | 110° |
| 2026-05-07 20:04 | 42.37212 | -71.01929 | 35 ft | 0 kts | 110° |
| 2026-05-07 20:04 | 42.37204 | -71.01900 | 43 ft | 7 kts | 112° |
| 2026-05-07 20:05 | 42.37179 | -71.01837 | 32 ft | 8 kts | 123° |
| 2026-05-07 20:05 | 42.37145 | -71.01772 | 35 ft | 9 kts | 125° |
| 2026-05-07 20:05 | 42.37110 | -71.01709 | 35 ft | 8 kts | 129° |
| 2026-05-07 20:05 | 42.37072 | -71.01652 | 35 ft | 8 kts | 134° |
| 2026-05-07 20:06 | 42.37022 | -71.01583 | 33 ft | 14 kts | 134° |
| 2026-05-07 20:06 | 42.36974 | -71.01515 | 32 ft | 16 kts | 134° |
| 2026-05-07 20:06 | 42.36896 | -71.01409 | 31 ft | 16 kts | 135° |
| 2026-05-07 20:06 | 42.36814 | -71.01299 | 29 ft | 17 kts | 137° |
| 2026-05-07 20:07 | 42.36674 | -71.01260 | 31 ft | 16 kts | 190° |
| 2026-05-07 20:07 | 42.36603 | -71.01284 | 30 ft | 16 kts | 199° |
| 2026-05-07 20:07 | 42.36499 | -71.01344 | 29 ft | 16 kts | 205° |
| 2026-05-07 20:07 | 42.36450 | -71.01374 | 29 ft | 0 kts | 202° |
| 2026-05-07 20:08 | 42.36449 | -71.01374 | 28 ft | 1 kts | 203° |
| 2026-05-07 20:08 | 42.36436 | -71.01381 | 28 ft | 2 kts | 202° |
| 2026-05-07 20:08 | 42.36397 | -71.01391 | 28 ft | 7 kts | 176° |
| 2026-05-07 20:08 | 42.36356 | -71.01350 | 28 ft | 11 kts | 129° |
| 2026-05-07 20:09 | 42.36297 | -71.01228 | 31 ft | 18 kts | 121° |
| 2026-05-07 20:09 | 42.36240 | -71.01076 | 30 ft | 19 kts | 115° |
| 2026-05-07 20:09 | 42.36186 | -71.00918 | 31 ft | 18 kts | 114° |
| 2026-05-07 20:10 | 42.36079 | -71.00550 | 30 ft | 21 kts | 108° |
| 2026-05-07 20:10 | 42.36033 | -71.00365 | 31 ft | 18 kts | 108° |
| 2026-05-07 20:10 | 42.36002 | -71.00239 | 32 ft | 13 kts | 109° |
| 2026-05-07 20:10 | 42.35967 | -71.00123 | 34 ft | 14 kts | 118° |
| 2026-05-07 20:11 | 42.35906 | -71.00015 | 34 ft | 15 kts | 136° |
| 2026-05-07 20:11 | 42.35837 | -70.99922 | 36 ft | 13 kts | 135° |
| 2026-05-07 20:11 | 42.35768 | -70.99826 | 34 ft | 18 kts | 134° |
| 2026-05-07 20:11 | 42.35673 | -70.99696 | 32 ft | 20 kts | 135° |
| 2026-05-07 20:12 | 42.35574 | -70.99562 | 30 ft | 21 kts | 135° |
| 2026-05-07 20:12 | 42.35502 | -70.99444 | 30 ft | 14 kts | 112° |
| 2026-05-07 20:12 | 42.35494 | -70.99365 | 31 ft | 6 kts | 86° |
| 2026-05-07 20:12 | 42.35526 | -70.99284 | 30 ft | 9 kts | 17° |
| 2026-05-07 20:13 | 42.35578 | -70.99316 | 31 ft | 9 kts | 315° |
| 2026-05-07 20:13 | 42.35668 | -70.99436 | 31 ft | 39 kts | 315° |
| 2026-05-07 20:13 | 42.35981 | -70.99854 | 35 ft | 87 kts | 315° |
| 2026-05-07 20:13 | 42.36516 | -71.00569 | 34 ft | 128 kts | 315° |
| 2026-05-07 20:14 | 42.37244 | -71.01538 | 51 ft | 163 kts | 315° |
| 2026-05-07 20:14 | 42.38067 | -71.02617 | 472 ft | 162 kts | 310° |
| 2026-05-07 20:14 | 42.38705 | -71.03822 | 1323 ft | 156 kts | 300° |
| 2026-05-07 20:14 | 42.39298 | -71.05188 | 1764 ft | 184 kts | 298° |
| 2026-05-07 20:15 | 42.39988 | -71.06824 | 2126 ft | 217 kts | 298° |
| 2026-05-07 20:15 | 42.40779 | -71.08677 | 2730 ft | 239 kts | 300° |
| 2026-05-07 20:15 | 42.41920 | -71.10288 | 3479 ft | 241 kts | 328° |
| 2026-05-07 20:15 | 42.43471 | -71.11253 | 3887 ft | 253 kts | 336° |
| 2026-05-07 20:16 | 42.45140 | -71.12102 | 4144 ft | 256 kts | 337° |
| 2026-05-07 20:16 | 42.46814 | -71.12963 | 4720 ft | 257 kts | 336° |
| 2026-05-07 20:16 | 42.48473 | -71.13835 | 5472 ft | 255 kts | 336° |
| 2026-05-07 20:16 | 42.50145 | -71.14731 | 6051 ft | 259 kts | 336° |
| 2026-05-07 20:17 | 42.51830 | -71.15635 | 6668 ft | 261 kts | 336° |
| 2026-05-07 20:17 | 42.53533 | -71.16431 | 7271 ft | 263 kts | 338° |
| 2026-05-07 20:17 | 42.55280 | -71.17188 | 7923 ft | 264 kts | 337° |
| 2026-05-07 20:17 | 42.57030 | -71.17954 | 8584 ft | 264 kts | 336° |
| 2026-05-07 20:18 | 42.58777 | -71.18733 | 9223 ft | 265 kts | 335° |
| 2026-05-07 20:18 | 42.60530 | -71.19524 | 9839 ft | 266 kts | 334° |
| 2026-05-07 20:18 | 42.62314 | -71.20333 | 10271 ft | 274 kts | 333° |
| 2026-05-07 20:18 | 42.64174 | -71.21189 | 10489 ft | 289 kts | 333° |
| 2026-05-07 20:19 | 42.66103 | -71.22075 | 10699 ft | 304 kts | 333° |
| 2026-05-07 20:19 | 42.68181 | -71.23027 | 10907 ft | 318 kts | 334° |
| 2026-05-07 20:19 | 42.70293 | -71.23994 | 11140 ft | 331 kts | 334° |
| 2026-05-07 20:19 | 42.72531 | -71.25015 | 11369 ft | 344 kts | 334° |
| 2026-05-07 20:20 | 42.74838 | -71.26069 | 11586 ft | 356 kts | 334° |
| 2026-05-07 20:20 | 42.77202 | -71.27211 | 11806 ft | 364 kts | 330° |
| 2026-05-07 20:20 | 42.79472 | -71.28760 | 12108 ft | 366 kts | 323° |
| 2026-05-07 20:20 | 42.81659 | -71.30566 | 12523 ft | 368 kts | 320° |
| 2026-05-07 20:21 | 42.83809 | -71.32484 | 12960 ft | 371 kts | 318° |
| 2026-05-07 20:21 | 42.85958 | -71.34463 | 13397 ft | 374 kts | 318° |
| 2026-05-07 20:21 | 42.88124 | -71.36469 | 13824 ft | 377 kts | 317° |
| 2026-05-07 20:21 | 42.90320 | -71.38491 | 14209 ft | 381 kts | 318° |
| 2026-05-07 20:22 | 42.92532 | -71.40511 | 14616 ft | 385 kts | 318° |
| 2026-05-07 20:22 | 42.94770 | -71.42545 | 14995 ft | 388 kts | 317° |
| 2026-05-07 20:22 | 42.97000 | -71.44566 | 15409 ft | 391 kts | 317° |
| 2026-05-07 20:22 | 42.99281 | -71.46627 | 15827 ft | 394 kts | 317° |
| 2026-05-07 20:23 | 43.01579 | -71.48705 | 16238 ft | 397 kts | 317° |
| 2026-05-07 20:23 | 43.03892 | -71.50794 | 16683 ft | 400 kts | 317° |
| 2026-05-07 20:23 | 43.06235 | -71.52915 | 17074 ft | 405 kts | 317° |
| 2026-05-07 20:23 | 43.08585 | -71.55046 | 17488 ft | 408 kts | 317° |
| 2026-05-07 20:24 | 43.10947 | -71.57190 | 17928 ft | 411 kts | 316° |
| 2026-05-07 20:24 | 43.13351 | -71.59376 | 18313 ft | 414 kts | 316° |
| 2026-05-07 20:24 | 43.15752 | -71.61560 | 18749 ft | 414 kts | 316° |
| 2026-05-07 20:24 | 43.18154 | -71.63744 | 19156 ft | 416 kts | 316° |
| 2026-05-07 20:25 | 43.20583 | -71.65957 | 19572 ft | 417 kts | 316° |
| 2026-05-07 20:25 | 43.22973 | -71.68137 | 19998 ft | 418 kts | 316° |
| 2026-05-07 20:25 | 43.25401 | -71.70355 | 20400 ft | 420 kts | 316° |
| 2026-05-07 20:25 | 43.27846 | -71.72592 | 20818 ft | 421 kts | 316° |
| 2026-05-07 20:26 | 43.30288 | -71.74824 | 21241 ft | 423 kts | 315° |
| 2026-05-07 20:26 | 43.32746 | -71.77076 | 21641 ft | 425 kts | 315° |
| 2026-05-07 20:26 | 43.35210 | -71.79336 | 22056 ft | 427 kts | 315° |
| 2026-05-07 20:26 | 43.37688 | -71.81610 | 22450 ft | 430 kts | 315° |
| 2026-05-07 20:27 | 43.40179 | -71.83900 | 22857 ft | 431 kts | 315° |
| 2026-05-07 20:27 | 43.42681 | -71.86201 | 23341 ft | 432 kts | 315° |
| 2026-05-07 20:27 | 43.45186 | -71.88508 | 23676 ft | 435 kts | 315° |
| 2026-05-07 20:27 | 43.47708 | -71.90834 | 23988 ft | 436 kts | 315° |
| 2026-05-07 20:28 | 43.50241 | -71.93171 | 24278 ft | 439 kts | 315° |
| 2026-05-07 20:28 | 43.52788 | -71.95521 | 24574 ft | 441 kts | 315° |
| 2026-05-07 20:28 | 43.55346 | -71.97882 | 24885 ft | 443 kts | 315° |
| 2026-05-07 20:28 | 43.57916 | -72.00258 | 25208 ft | 445 kts | 315° |
| 2026-05-07 20:29 | 43.60463 | -72.02618 | 25494 ft | 447 kts | 315° |
| 2026-05-07 20:29 | 43.63054 | -72.05020 | 25806 ft | 450 kts | 315° |
| 2026-05-07 20:29 | 43.65656 | -72.07435 | 26143 ft | 451 kts | 315° |
| 2026-05-07 20:29 | 43.68267 | -72.09861 | 26457 ft | 453 kts | 315° |
| 2026-05-07 20:30 | 43.70886 | -72.12298 | 26742 ft | 455 kts | 315° |
| 2026-05-07 20:30 | 43.73519 | -72.14750 | 27029 ft | 457 kts | 315° |
| 2026-05-07 20:30 | 43.76160 | -72.17212 | 27353 ft | 459 kts | 315° |
| 2026-05-07 20:30 | 43.78815 | -72.19691 | 27656 ft | 461 kts | 315° |
| 2026-05-07 20:31 | 43.81470 | -72.22170 | 27938 ft | 462 kts | 315° |
| 2026-05-07 20:31 | 43.84157 | -72.24682 | 28252 ft | 463 kts | 315° |
| 2026-05-07 20:31 | 43.86831 | -72.27186 | 28516 ft | 465 kts | 315° |
| 2026-05-07 20:31 | 43.89525 | -72.29708 | 28866 ft | 465 kts | 315° |
| 2026-05-07 20:32 | 43.92208 | -72.32219 | 29255 ft | 464 kts | 314° |
| 2026-05-07 20:32 | 43.94844 | -72.34692 | 29590 ft | 463 kts | 315° |
| 2026-05-07 20:32 | 43.97513 | -72.37202 | 29925 ft | 462 kts | 314° |
| 2026-05-07 20:32 | 44.00175 | -72.39706 | 30245 ft | 461 kts | 314° |
| 2026-05-07 20:33 | 44.02833 | -72.42212 | 30475 ft | 462 kts | 314° |
| 2026-05-07 20:33 | 44.05487 | -72.44721 | 30717 ft | 463 kts | 314° |
| 2026-05-07 20:33 | 44.08160 | -72.47246 | 30929 ft | 463 kts | 314° |
| 2026-05-07 20:33 | 44.10824 | -72.49767 | 31155 ft | 464 kts | 314° |
| 2026-05-07 20:34 | 44.13464 | -72.52266 | 31384 ft | 464 kts | 314° |
| 2026-05-07 20:34 | 44.16135 | -72.54796 | 31593 ft | 465 kts | 314° |
| 2026-05-07 20:34 | 44.18808 | -72.57332 | 31807 ft | 465 kts | 314° |
| 2026-05-07 20:34 | 44.21490 | -72.59880 | 31995 ft | 466 kts | 314° |
| 2026-05-07 20:35 | 44.24164 | -72.62425 | 32153 ft | 467 kts | 314° |
| 2026-05-07 20:35 | 44.26854 | -72.64985 | 32362 ft | 467 kts | 314° |
| 2026-05-07 20:35 | 44.29535 | -72.67541 | 32552 ft | 467 kts | 314° |
| 2026-05-07 20:35 | 44.32231 | -72.70114 | 32731 ft | 468 kts | 314° |
| 2026-05-07 20:36 | 44.34927 | -72.72688 | 32927 ft | 468 kts | 314° |
| 2026-05-07 20:36 | 44.37583 | -72.75228 | 33093 ft | 469 kts | 314° |
| 2026-05-07 20:36 | 44.40274 | -72.77803 | 33268 ft | 469 kts | 314° |
| 2026-05-07 20:36 | 44.42962 | -72.80379 | 33425 ft | 470 kts | 314° |
| 2026-05-07 20:37 | 44.45673 | -72.82980 | 33561 ft | 470 kts | 315° |
| 2026-05-07 20:37 | 44.48370 | -72.85572 | 33672 ft | 471 kts | 314° |
| 2026-05-07 20:37 | 44.51079 | -72.88177 | 33808 ft | 472 kts | 314° |
| 2026-05-07 20:38 | 44.56523 | -72.93430 | 33836 ft | 478 kts | 315° |
| 2026-05-07 20:38 | 44.62014 | -72.98726 | 33836 ft | 477 kts | 315° |
| 2026-05-07 20:39 | 44.67448 | -73.03977 | 33838 ft | 477 kts | 315° |
| 2026-05-07 20:39 | 44.72902 | -73.09268 | 33839 ft | 477 kts | 315° |
| 2026-05-07 20:40 | 44.78370 | -73.14586 | 33835 ft | 477 kts | 315° |
| 2026-05-07 20:40 | 44.83827 | -73.19906 | 33835 ft | 477 kts | 315° |
| 2026-05-07 20:41 | 44.89279 | -73.25233 | 33840 ft | 477 kts | 315° |
| 2026-05-07 20:41 | 44.94701 | -73.30543 | 33837 ft | 477 kts | 315° |
| 2026-05-07 20:42 | 45.00142 | -73.35885 | 33831 ft | 477 kts | 316° |
| 2026-05-07 20:42 | 45.05593 | -73.41249 | 33831 ft | 477 kts | 316° |
| 2026-05-07 20:43 | 45.11038 | -73.46620 | 33824 ft | 477 kts | 316° |
| 2026-05-07 20:43 | 45.16492 | -73.52011 | 33824 ft | 477 kts | 316° |
| 2026-05-07 20:44 | 45.21940 | -73.57408 | 33815 ft | 478 kts | 316° |
| 2026-05-07 20:44 | 45.27348 | -73.62781 | 33812 ft | 478 kts | 316° |
| 2026-05-07 20:45 | 45.32812 | -73.68222 | 33819 ft | 479 kts | 316° |
| 2026-05-07 20:45 | 45.38263 | -73.73663 | 33827 ft | 479 kts | 316° |
| 2026-05-07 20:46 | 45.43732 | -73.79136 | 33828 ft | 479 kts | 317° |
| 2026-05-07 20:46 | 45.49155 | -73.84575 | 33826 ft | 480 kts | 317° |
| 2026-05-07 20:47 | 45.54627 | -73.90074 | 33825 ft | 480 kts | 317° |
| 2026-05-07 20:47 | 45.60092 | -73.95582 | 33818 ft | 481 kts | 317° |
| 2026-05-07 20:48 | 45.65601 | -74.01017 | 33815 ft | 483 kts | 319° |
| 2026-05-07 20:48 | 45.71256 | -74.06241 | 33816 ft | 484 kts | 320° |
| 2026-05-07 20:49 | 45.76922 | -74.11464 | 33817 ft | 484 kts | 320° |
| 2026-05-07 20:49 | 45.82561 | -74.16736 | 33818 ft | 484 kts | 320° |
| 2026-05-07 20:50 | 45.88150 | -74.22000 | 33817 ft | 483 kts | 320° |
| 2026-05-07 20:50 | 45.93778 | -74.27320 | 33814 ft | 484 kts | 320° |
| 2026-05-07 20:51 | 45.99398 | -74.32644 | 33810 ft | 484 kts | 320° |
| 2026-05-07 20:51 | 46.05013 | -74.37973 | 33812 ft | 484 kts | 320° |
| 2026-05-07 20:52 | 46.10633 | -74.43320 | 33813 ft | 484 kts | 320° |
| 2026-05-07 20:52 | 46.16255 | -74.48684 | 33812 ft | 484 kts | 320° |
| 2026-05-07 20:53 | 46.21866 | -74.54051 | 33812 ft | 484 kts | 320° |
| 2026-05-07 20:53 | 46.26533 | -74.58528 | 33820 ft | 484 kts | 320° |
| 2026-05-07 20:54 | 46.32147 | -74.63922 | 33817 ft | 484 kts | 320° |
| 2026-05-07 20:54 | 46.37771 | -74.69336 | 33819 ft | 485 kts | 321° |
| 2026-05-07 20:55 | 46.43389 | -74.74761 | 33818 ft | 485 kts | 321° |
| 2026-05-07 20:55 | 46.48997 | -74.80190 | 33814 ft | 485 kts | 321° |
| 2026-05-07 20:56 | 46.54570 | -74.85598 | 33818 ft | 485 kts | 321° |
| 2026-05-07 20:56 | 46.60181 | -74.91057 | 33819 ft | 485 kts | 321° |
| 2026-05-07 20:57 | 46.65799 | -74.96536 | 33822 ft | 486 kts | 321° |
| 2026-05-07 20:57 | 46.71418 | -75.02031 | 33817 ft | 486 kts | 321° |
| 2026-05-07 20:58 | 46.77030 | -75.07533 | 33818 ft | 486 kts | 321° |
| 2026-05-07 20:58 | 46.82608 | -75.13016 | 33818 ft | 487 kts | 321° |
| 2026-05-07 20:59 | 46.88236 | -75.18563 | 33817 ft | 487 kts | 321° |
| 2026-05-07 20:59 | 46.93863 | -75.24122 | 33817 ft | 487 kts | 321° |
| 2026-05-07 21:00 | 46.99480 | -75.29685 | 33817 ft | 487 kts | 321° |
| 2026-05-07 21:00 | 47.05095 | -75.35261 | 33804 ft | 487 kts | 321° |
| 2026-05-07 21:01 | 47.10710 | -75.40851 | 33821 ft | 487 kts | 321° |
| 2026-05-07 21:01 | 47.16286 | -75.46416 | 33823 ft | 487 kts | 321° |
| 2026-05-07 21:02 | 47.21892 | -75.52027 | 33809 ft | 487 kts | 321° |
| 2026-05-07 21:02 | 47.27498 | -75.57653 | 33813 ft | 487 kts | 322° |
| 2026-05-07 21:03 | 47.33098 | -75.63286 | 33814 ft | 487 kts | 322° |
| 2026-05-07 21:03 | 47.38665 | -75.68901 | 33815 ft | 487 kts | 322° |
| 2026-05-07 21:04 | 47.44264 | -75.74564 | 33816 ft | 487 kts | 322° |
| 2026-05-07 21:04 | 47.49847 | -75.80224 | 33813 ft | 486 kts | 322° |
| 2026-05-07 21:05 | 47.55392 | -75.85860 | 33814 ft | 486 kts | 322° |
| 2026-05-07 21:05 | 47.60968 | -75.91543 | 33818 ft | 486 kts | 322° |
| 2026-05-07 21:06 | 47.66548 | -75.97247 | 33819 ft | 486 kts | 322° |
| 2026-05-07 21:06 | 47.72112 | -76.02949 | 33819 ft | 486 kts | 322° |
| 2026-05-07 21:07 | 47.77678 | -76.08667 | 33821 ft | 486 kts | 322° |
| 2026-05-07 21:07 | 47.83204 | -76.14359 | 33822 ft | 486 kts | 322° |
| 2026-05-07 21:08 | 47.88760 | -76.20097 | 33824 ft | 486 kts | 322° |
| 2026-05-07 21:08 | 47.94321 | -76.25856 | 33822 ft | 486 kts | 322° |
| 2026-05-07 21:09 | 47.99867 | -76.31615 | 33832 ft | 485 kts | 322° |
| 2026-05-07 21:09 | 48.05411 | -76.37386 | 33822 ft | 485 kts | 322° |
| 2026-05-07 21:10 | 48.10950 | -76.43167 | 33825 ft | 485 kts | 322° |
| 2026-05-07 21:10 | 48.16451 | -76.48927 | 33825 ft | 485 kts | 322° |
| 2026-05-07 21:11 | 48.21979 | -76.54728 | 33830 ft | 485 kts | 322° |
| 2026-05-07 21:11 | 48.30278 | -76.63467 | 33834 ft | 485 kts | 322° |
| 2026-05-07 21:12 | 48.35797 | -76.69300 | 33826 ft | 485 kts | 322° |
| 2026-05-07 21:12 | 48.41309 | -76.75139 | 33842 ft | 485 kts | 322° |
| 2026-05-07 21:13 | 48.46791 | -76.80962 | 33829 ft | 484 kts | 322° |
| 2026-05-07 21:13 | 48.52302 | -76.86832 | 33828 ft | 485 kts | 322° |
| 2026-05-07 21:14 | 48.57809 | -76.92714 | 33830 ft | 485 kts | 322° |
| 2026-05-07 21:14 | 48.63317 | -76.98613 | 33831 ft | 485 kts | 322° |
| 2026-05-07 21:15 | 48.68827 | -77.04531 | 33827 ft | 485 kts | 322° |
| 2026-05-07 21:15 | 48.74290 | -77.10414 | 33829 ft | 485 kts | 322° |
| 2026-05-07 21:16 | 48.79794 | -77.16357 | 33829 ft | 485 kts | 322° |
| 2026-05-07 21:16 | 48.85289 | -77.22306 | 33830 ft | 485 kts | 322° |
| 2026-05-07 21:17 | 48.90775 | -77.28263 | 33826 ft | 485 kts | 322° |
| 2026-05-07 21:17 | 48.96265 | -77.34241 | 33824 ft | 485 kts | 322° |
| 2026-05-07 21:18 | 49.01906 | -77.39798 | 33825 ft | 487 kts | 328° |
| 2026-05-07 21:18 | 49.07863 | -77.44756 | 33825 ft | 487 kts | 329° |
| 2026-05-07 21:19 | 49.13857 | -77.49627 | 33819 ft | 487 kts | 330° |
| 2026-05-07 21:19 | 49.19842 | -77.54495 | 33819 ft | 487 kts | 329° |
| 2026-05-07 21:20 | 49.25779 | -77.59353 | 33822 ft | 487 kts | 329° |
| 2026-05-07 21:20 | 49.31764 | -77.64271 | 33820 ft | 487 kts | 329° |
| 2026-05-07 21:21 | 49.37738 | -77.69196 | 33818 ft | 487 kts | 329° |
| 2026-05-07 21:21 | 49.43706 | -77.74130 | 33814 ft | 487 kts | 329° |
| 2026-05-07 21:22 | 49.49682 | -77.79082 | 33801 ft | 487 kts | 329° |
| 2026-05-07 21:22 | 49.55654 | -77.84046 | 33794 ft | 487 kts | 329° |
| 2026-05-07 21:23 | 49.61620 | -77.89017 | 33787 ft | 487 kts | 329° |
| 2026-05-07 21:23 | 49.67586 | -77.94003 | 33782 ft | 487 kts | 329° |
| 2026-05-07 21:24 | 49.73509 | -77.98968 | 33783 ft | 487 kts | 329° |
| 2026-05-07 21:24 | 49.79470 | -78.03979 | 33783 ft | 487 kts | 329° |
| 2026-05-07 21:25 | 49.85431 | -78.09003 | 33792 ft | 487 kts | 329° |
| 2026-05-07 21:25 | 49.91387 | -78.14037 | 33795 ft | 487 kts | 329° |
| 2026-05-07 21:26 | 49.97349 | -78.19091 | 33807 ft | 488 kts | 329° |
| 2026-05-07 21:26 | 50.03270 | -78.24125 | 33811 ft | 488 kts | 329° |
| 2026-05-07 21:27 | 50.09227 | -78.29202 | 33806 ft | 488 kts | 329° |
| 2026-05-07 21:27 | 50.15183 | -78.34294 | 33812 ft | 488 kts | 329° |
| 2026-05-07 21:28 | 50.21143 | -78.39405 | 33809 ft | 488 kts | 329° |
| 2026-05-07 21:28 | 50.27085 | -78.44514 | 33809 ft | 488 kts | 329° |
| 2026-05-07 21:29 | 50.33004 | -78.49619 | 33803 ft | 488 kts | 329° |
| 2026-05-07 21:29 | 50.38942 | -78.54754 | 33806 ft | 488 kts | 329° |
| 2026-05-07 21:30 | 50.44897 | -78.59920 | 33802 ft | 488 kts | 329° |
| 2026-05-07 21:30 | 50.50838 | -78.65087 | 33802 ft | 488 kts | 329° |
| 2026-05-07 21:31 | 50.56774 | -78.70265 | 33801 ft | 488 kts | 329° |
| 2026-05-07 21:31 | 50.62667 | -78.75421 | 33803 ft | 488 kts | 329° |
| 2026-05-07 21:32 | 50.68607 | -78.80633 | 33800 ft | 488 kts | 329° |
| 2026-05-07 21:32 | 50.74553 | -78.85865 | 33799 ft | 488 kts | 329° |
| 2026-05-07 21:33 | 50.80487 | -78.91102 | 33800 ft | 488 kts | 329° |
| 2026-05-07 21:33 | 50.86386 | -78.96324 | 33801 ft | 488 kts | 329° |
| 2026-05-07 21:34 | 50.92329 | -79.01600 | 33804 ft | 488 kts | 329° |
| 2026-05-07 21:34 | 50.98256 | -79.06877 | 33807 ft | 488 kts | 329° |
| 2026-05-07 21:35 | 51.04148 | -79.12140 | 33799 ft | 488 kts | 329° |
| 2026-05-07 21:35 | 51.10081 | -79.17453 | 33798 ft | 488 kts | 329° |
| 2026-05-07 21:36 | 51.16002 | -79.22773 | 33799 ft | 489 kts | 329° |
| 2026-05-07 21:36 | 51.21891 | -79.28079 | 33801 ft | 489 kts | 329° |
| 2026-05-07 21:37 | 51.27809 | -79.33427 | 33802 ft | 489 kts | 329° |
| 2026-05-07 21:37 | 51.33736 | -79.38799 | 33801 ft | 489 kts | 329° |
| 2026-05-07 21:38 | 51.39657 | -79.44182 | 33795 ft | 489 kts | 329° |
| 2026-05-07 21:38 | 51.45532 | -79.49539 | 33805 ft | 489 kts | 329° |
| 2026-05-07 21:39 | 51.51444 | -79.54946 | 33803 ft | 489 kts | 329° |
| 2026-05-07 21:39 | 51.57367 | -79.60380 | 33805 ft | 489 kts | 329° |
| 2026-05-07 21:40 | 51.63276 | -79.65817 | 33801 ft | 489 kts | 328° |
| 2026-05-07 21:40 | 51.69145 | -79.71234 | 33800 ft | 489 kts | 328° |
| 2026-05-07 21:41 | 51.75056 | -79.76705 | 33797 ft | 489 kts | 328° |
| 2026-05-07 21:41 | 51.80956 | -79.82184 | 33794 ft | 489 kts | 328° |
| 2026-05-07 21:42 | 51.85854 | -79.86745 | 33794 ft | 489 kts | 328° |
| 2026-05-07 21:42 | 51.91763 | -79.92263 | 33792 ft | 489 kts | 328° |
| 2026-05-07 21:43 | 51.97611 | -79.97828 | 33787 ft | 488 kts | 324° |
| 2026-05-07 21:43 | 52.02710 | -80.05019 | 33792 ft | 485 kts | 312° |
| 2026-05-07 21:44 | 52.07258 | -80.13147 | 33792 ft | 486 kts | 310° |
| 2026-05-07 21:44 | 52.11713 | -80.21419 | 33792 ft | 486 kts | 310° |
| 2026-05-07 21:45 | 52.16161 | -80.29708 | 33789 ft | 486 kts | 310° |
| 2026-05-07 21:45 | 52.20616 | -80.37989 | 33789 ft | 486 kts | 310° |
| 2026-05-07 21:46 | 52.25071 | -80.46280 | 33786 ft | 486 kts | 310° |
| 2026-05-07 21:46 | 52.29500 | -80.54547 | 33788 ft | 486 kts | 310° |
| 2026-05-07 21:47 | 52.33948 | -80.62878 | 33788 ft | 486 kts | 310° |
| 2026-05-07 21:47 | 52.38385 | -80.71220 | 33788 ft | 486 kts | 310° |
| 2026-05-07 21:48 | 52.42830 | -80.79603 | 33786 ft | 486 kts | 310° |
| 2026-05-07 21:48 | 52.47237 | -80.87942 | 33786 ft | 486 kts | 310° |
| 2026-05-07 21:49 | 52.51664 | -80.96346 | 33787 ft | 487 kts | 309° |
| 2026-05-07 21:49 | 52.56086 | -81.04771 | 33774 ft | 487 kts | 309° |
| 2026-05-07 21:50 | 52.60513 | -81.13232 | 33784 ft | 486 kts | 309° |
| 2026-05-07 21:50 | 52.64893 | -81.21634 | 33771 ft | 487 kts | 309° |
| 2026-05-07 21:51 | 52.69303 | -81.30119 | 33785 ft | 487 kts | 309° |
| 2026-05-07 21:51 | 52.73706 | -81.38621 | 33766 ft | 487 kts | 309° |
| 2026-05-07 21:52 | 52.78111 | -81.47155 | 33771 ft | 487 kts | 309° |
| 2026-05-07 21:52 | 52.82476 | -81.55641 | 33764 ft | 488 kts | 309° |
| 2026-05-07 21:53 | 52.86871 | -81.64215 | 33765 ft | 488 kts | 309° |
| 2026-05-07 21:53 | 52.91248 | -81.72783 | 33772 ft | 488 kts | 309° |
| 2026-05-07 21:54 | 52.95629 | -81.81390 | 33761 ft | 488 kts | 309° |
| 2026-05-07 21:54 | 52.99979 | -81.89962 | 33764 ft | 488 kts | 309° |
| 2026-05-07 21:55 | 53.04347 | -81.98602 | 33764 ft | 488 kts | 309° |
| 2026-05-07 21:55 | 53.08720 | -82.07280 | 33763 ft | 488 kts | 309° |
| 2026-05-07 21:56 | 53.13074 | -82.15951 | 33761 ft | 488 kts | 309° |
| 2026-05-07 21:56 | 53.17431 | -82.24660 | 33766 ft | 489 kts | 309° |
| 2026-05-07 21:57 | 53.21775 | -82.33371 | 33766 ft | 489 kts | 309° |
| 2026-05-07 21:57 | 53.26101 | -82.42076 | 33753 ft | 489 kts | 309° |
| 2026-05-07 21:58 | 53.30442 | -82.50840 | 33753 ft | 489 kts | 308° |
| 2026-05-07 21:58 | 53.34774 | -82.59619 | 33753 ft | 488 kts | 308° |
| 2026-05-07 21:59 | 53.39087 | -82.68404 | 33755 ft | 488 kts | 308° |
| 2026-05-07 21:59 | 53.43399 | -82.77193 | 33757 ft | 487 kts | 308° |
| 2026-05-07 22:00 | 53.47671 | -82.85953 | 33755 ft | 488 kts | 308° |
| 2026-05-07 22:00 | 53.51974 | -82.94774 | 33757 ft | 487 kts | 308° |
| 2026-05-07 22:01 | 53.56264 | -83.03620 | 33753 ft | 488 kts | 308° |
| 2026-05-07 22:01 | 53.60539 | -83.12491 | 33765 ft | 488 kts | 308° |
| 2026-05-07 22:02 | 53.64795 | -83.21341 | 33769 ft | 488 kts | 308° |
| 2026-05-07 22:02 | 53.69067 | -83.30242 | 33764 ft | 488 kts | 308° |
| 2026-05-07 22:03 | 53.73335 | -83.39165 | 33760 ft | 488 kts | 308° |
| 2026-05-07 22:03 | 53.77599 | -83.48119 | 33766 ft | 488 kts | 308° |
| 2026-05-07 22:04 | 53.81853 | -83.57086 | 33758 ft | 488 kts | 308° |
| 2026-05-07 22:04 | 53.86097 | -83.66058 | 33761 ft | 488 kts | 307° |
| 2026-05-07 22:05 | 53.90306 | -83.74993 | 33760 ft | 488 kts | 307° |
| 2026-05-07 22:05 | 53.94540 | -83.84017 | 33756 ft | 488 kts | 307° |
| 2026-05-07 22:06 | 53.98777 | -83.93084 | 33754 ft | 489 kts | 307° |
| 2026-05-07 22:06 | 54.02998 | -84.02133 | 33760 ft | 489 kts | 307° |
| 2026-05-07 22:07 | 54.07218 | -84.11218 | 33757 ft | 489 kts | 307° |
| 2026-05-07 22:07 | 54.11400 | -84.20257 | 33757 ft | 488 kts | 307° |
| 2026-05-07 22:08 | 54.15603 | -84.29378 | 33750 ft | 488 kts | 307° |
| 2026-05-07 22:08 | 54.19803 | -84.38525 | 33754 ft | 488 kts | 307° |
| 2026-05-07 22:09 | 54.23992 | -84.47679 | 33754 ft | 488 kts | 307° |
| 2026-05-07 22:09 | 54.28144 | -84.56783 | 33758 ft | 488 kts | 307° |
| 2026-05-07 22:10 | 54.32319 | -84.65975 | 33745 ft | 488 kts | 307° |
| 2026-05-07 22:10 | 54.36485 | -84.75181 | 33747 ft | 488 kts | 307° |
| 2026-05-07 22:11 | 54.40646 | -84.84408 | 33748 ft | 488 kts | 307° |
| 2026-05-07 22:11 | 54.44796 | -84.93648 | 33747 ft | 488 kts | 307° |
| 2026-05-07 22:12 | 54.48913 | -85.02855 | 33739 ft | 488 kts | 306° |
| 2026-05-07 22:12 | 54.53053 | -85.12138 | 33748 ft | 488 kts | 307° |
| 2026-05-07 22:13 | 54.57184 | -85.21436 | 33743 ft | 488 kts | 306° |
| 2026-05-07 22:13 | 54.61295 | -85.30727 | 33734 ft | 488 kts | 306° |
| 2026-05-07 22:14 | 54.65411 | -85.40067 | 33731 ft | 488 kts | 306° |
| 2026-05-07 22:14 | 54.69488 | -85.49351 | 33738 ft | 488 kts | 306° |
| 2026-05-07 22:15 | 54.73583 | -85.58708 | 33731 ft | 487 kts | 306° |
| 2026-05-07 22:15 | 54.77674 | -85.68087 | 33729 ft | 487 kts | 306° |
| 2026-05-07 22:16 | 54.81752 | -85.77479 | 33733 ft | 487 kts | 306° |
| 2026-05-07 22:16 | 54.85795 | -85.86829 | 33731 ft | 487 kts | 306° |
| 2026-05-07 22:17 | 54.89858 | -85.96254 | 33717 ft | 487 kts | 306° |
| 2026-05-07 22:17 | 54.93911 | -86.05696 | 33718 ft | 487 kts | 306° |
| 2026-05-07 22:18 | 54.99984 | -86.19910 | 33708 ft | 487 kts | 306° |
| 2026-05-07 22:19 | 55.03991 | -86.29333 | 33720 ft | 486 kts | 306° |
| 2026-05-07 22:19 | 55.08019 | -86.38836 | 33697 ft | 486 kts | 306° |
| 2026-05-07 22:20 | 55.12034 | -86.48350 | 33714 ft | 486 kts | 306° |
| 2026-05-07 22:20 | 55.16015 | -86.57824 | 33704 ft | 486 kts | 306° |
| 2026-05-07 22:21 | 55.20022 | -86.67394 | 33705 ft | 486 kts | 306° |
| 2026-05-07 22:21 | 55.24009 | -86.76953 | 33702 ft | 486 kts | 306° |
| 2026-05-07 22:22 | 55.27990 | -86.86535 | 33698 ft | 486 kts | 306° |
| 2026-05-07 22:22 | 55.31935 | -86.96063 | 33696 ft | 486 kts | 306° |
| 2026-05-07 22:23 | 55.35901 | -87.05683 | 33698 ft | 486 kts | 306° |
| 2026-05-07 22:23 | 55.39855 | -87.15312 | 33697 ft | 486 kts | 306° |
| 2026-05-07 22:24 | 55.43803 | -87.24963 | 33696 ft | 485 kts | 306° |
| 2026-05-07 22:24 | 55.47739 | -87.34623 | 33690 ft | 485 kts | 306° |
| 2026-05-07 22:25 | 55.51672 | -87.44314 | 33694 ft | 485 kts | 306° |
| 2026-05-07 22:25 | 55.55566 | -87.53947 | 33694 ft | 485 kts | 306° |
| 2026-05-07 22:26 | 55.59479 | -87.63663 | 33694 ft | 485 kts | 306° |
| 2026-05-07 22:26 | 55.63383 | -87.73396 | 33694 ft | 485 kts | 306° |
| 2026-05-07 22:27 | 55.67281 | -87.83154 | 33695 ft | 485 kts | 306° |
| 2026-05-07 22:27 | 55.71172 | -87.92932 | 33696 ft | 485 kts | 306° |
| 2026-05-07 22:28 | 55.75032 | -88.02672 | 33694 ft | 485 kts | 306° |
| 2026-05-07 22:28 | 55.78906 | -88.12487 | 33697 ft | 485 kts | 305° |
| 2026-05-07 22:29 | 55.82765 | -88.22301 | 33696 ft | 485 kts | 305° |
| 2026-05-07 22:29 | 55.86629 | -88.32167 | 33696 ft | 485 kts | 306° |
| 2026-05-07 22:30 | 55.90481 | -88.42043 | 33697 ft | 485 kts | 305° |
| 2026-05-07 22:30 | 55.94320 | -88.51926 | 33693 ft | 484 kts | 305° |
| 2026-05-07 22:31 | 55.97507 | -88.60161 | 33697 ft | 484 kts | 305° |
| 2026-05-07 22:31 | 56.01950 | -88.71688 | 33690 ft | 484 kts | 305° |
| 2026-05-07 22:32 | 56.05144 | -88.80009 | 33696 ft | 484 kts | 305° |
| 2026-05-07 22:32 | 56.08921 | -88.89886 | 33696 ft | 484 kts | 305° |
| 2026-05-07 22:33 | 56.12722 | -88.99861 | 33697 ft | 484 kts | 305° |
| 2026-05-07 22:33 | 56.16515 | -89.09860 | 33692 ft | 484 kts | 305° |
| 2026-05-07 22:34 | 56.20304 | -89.19892 | 33698 ft | 484 kts | 305° |
| 2026-05-07 22:34 | 56.24056 | -89.29865 | 33694 ft | 484 kts | 305° |
| 2026-05-07 22:35 | 56.27820 | -89.39912 | 33697 ft | 484 kts | 305° |
| 2026-05-07 22:35 | 56.31592 | -89.50014 | 33784 ft | 485 kts | 305° |
| 2026-05-07 22:36 | 56.35321 | -89.60051 | 33698 ft | 485 kts | 305° |
| 2026-05-07 22:36 | 56.39069 | -89.70176 | 33697 ft | 485 kts | 305° |
| 2026-05-07 22:37 | 56.42811 | -89.80331 | 33695 ft | 485 kts | 305° |
| 2026-05-07 22:37 | 56.46540 | -89.90492 | 33691 ft | 485 kts | 305° |
| 2026-05-07 22:38 | 56.50268 | -90.00691 | 33692 ft | 485 kts | 305° |
| 2026-05-07 22:38 | 56.54242 | -90.10519 | 33694 ft | 484 kts | 309° |
| 2026-05-07 22:39 | 56.58450 | -90.20047 | 33695 ft | 484 kts | 310° |
| 2026-05-07 22:39 | 56.62618 | -90.29630 | 33692 ft | 484 kts | 309° |
| 2026-05-07 22:40 | 56.66703 | -90.39247 | 33692 ft | 484 kts | 309° |
| 2026-05-07 22:40 | 56.70793 | -90.48980 | 33690 ft | 484 kts | 309° |
| 2026-05-07 22:41 | 56.74875 | -90.58737 | 33692 ft | 484 kts | 309° |
| 2026-05-07 22:41 | 56.78951 | -90.68511 | 33691 ft | 483 kts | 309° |
| 2026-05-07 22:42 | 56.82997 | -90.78250 | 33701 ft | 483 kts | 309° |
| 2026-05-07 22:42 | 56.87060 | -90.88066 | 33702 ft | 483 kts | 308° |
| 2026-05-07 22:43 | 56.91110 | -90.97890 | 33692 ft | 483 kts | 308° |
| 2026-05-07 22:43 | 56.95150 | -91.07733 | 33694 ft | 483 kts | 308° |
| 2026-05-07 22:44 | 56.99171 | -91.17569 | 33696 ft | 483 kts | 308° |
| 2026-05-07 22:44 | 57.03197 | -91.27455 | 33695 ft | 483 kts | 308° |
| 2026-05-07 22:45 | 57.07180 | -91.37278 | 33701 ft | 482 kts | 308° |
| 2026-05-07 22:45 | 57.11186 | -91.47198 | 33694 ft | 482 kts | 308° |
| 2026-05-07 22:46 | 57.15177 | -91.57122 | 33706 ft | 482 kts | 308° |
| 2026-05-07 22:46 | 57.19171 | -91.67092 | 33701 ft | 482 kts | 308° |
| 2026-05-07 22:47 | 57.23150 | -91.77070 | 33698 ft | 482 kts | 308° |
| 2026-05-07 22:47 | 57.27104 | -91.87022 | 33697 ft | 482 kts | 308° |
| 2026-05-07 22:48 | 57.31068 | -91.97045 | 33695 ft | 482 kts | 308° |
| 2026-05-07 22:48 | 57.35018 | -92.07072 | 33697 ft | 482 kts | 308° |
| 2026-05-07 22:49 | 57.38965 | -92.17133 | 33696 ft | 482 kts | 308° |
| 2026-05-07 22:49 | 57.42869 | -92.27127 | 33696 ft | 482 kts | 308° |
| 2026-05-07 22:50 | 57.46798 | -92.37225 | 33697 ft | 482 kts | 308° |
| 2026-05-07 22:50 | 57.50719 | -92.47346 | 33692 ft | 482 kts | 308° |
| 2026-05-07 22:51 | 57.54626 | -92.57475 | 33697 ft | 482 kts | 308° |
| 2026-05-07 22:51 | 57.58506 | -92.67573 | 33698 ft | 482 kts | 308° |
| 2026-05-07 22:52 | 57.62402 | -92.77760 | 33703 ft | 482 kts | 308° |
| 2026-05-07 22:52 | 57.66286 | -92.87958 | 33698 ft | 482 kts | 308° |
| 2026-05-07 22:53 | 57.70165 | -92.98184 | 33703 ft | 482 kts | 308° |
| 2026-05-07 22:53 | 57.74009 | -93.08362 | 33703 ft | 482 kts | 307° |
| 2026-05-07 22:54 | 57.77890 | -93.18683 | 33704 ft | 482 kts | 307° |
| 2026-05-07 22:54 | 57.81722 | -93.28917 | 33704 ft | 482 kts | 307° |
| 2026-05-07 22:55 | 57.85569 | -93.39233 | 33711 ft | 482 kts | 307° |
| 2026-05-07 22:55 | 57.89401 | -93.49557 | 33713 ft | 482 kts | 307° |
| 2026-05-07 22:56 | 57.93230 | -93.59914 | 33712 ft | 482 kts | 307° |
| 2026-05-07 22:56 | 57.97051 | -93.70298 | 33711 ft | 482 kts | 307° |
| 2026-05-07 22:57 | 58.00861 | -93.80694 | 33717 ft | 482 kts | 307° |
| 2026-05-07 22:57 | 58.04643 | -93.91059 | 33715 ft | 482 kts | 307° |
| 2026-05-07 22:58 | 58.08434 | -94.01497 | 33717 ft | 482 kts | 307° |
| 2026-05-07 22:58 | 58.12220 | -94.11964 | 33720 ft | 482 kts | 307° |
| 2026-05-07 22:59 | 58.15991 | -94.22437 | 33726 ft | 482 kts | 307° |
| 2026-05-07 22:59 | 58.19768 | -94.32970 | 33726 ft | 482 kts | 307° |
| 2026-05-07 23:00 | 58.23542 | -94.43544 | 33725 ft | 482 kts | 307° |
| 2026-05-07 23:00 | 58.27272 | -94.54042 | 33730 ft | 482 kts | 307° |
| 2026-05-07 23:01 | 58.31026 | -94.64653 | 33734 ft | 482 kts | 306° |
| 2026-05-07 23:01 | 58.34761 | -94.75260 | 33734 ft | 482 kts | 306° |
| 2026-05-07 23:02 | 58.38491 | -94.85900 | 33738 ft | 482 kts | 306° |
| 2026-05-07 23:02 | 58.42186 | -94.96486 | 33740 ft | 482 kts | 306° |
| 2026-05-07 23:03 | 58.45897 | -95.07165 | 33739 ft | 482 kts | 306° |
| 2026-05-07 23:03 | 58.49600 | -95.17869 | 33739 ft | 482 kts | 306° |
| 2026-05-07 23:04 | 58.53294 | -95.28593 | 33744 ft | 482 kts | 306° |
| 2026-05-07 23:04 | 58.56956 | -95.39275 | 33749 ft | 482 kts | 306° |
| 2026-05-07 23:05 | 58.60631 | -95.50044 | 33750 ft | 482 kts | 306° |
| 2026-05-07 23:05 | 58.64291 | -95.60816 | 33750 ft | 482 kts | 306° |
| 2026-05-07 23:06 | 58.67946 | -95.71625 | 33751 ft | 482 kts | 306° |
| 2026-05-07 23:06 | 58.71591 | -95.82454 | 33758 ft | 482 kts | 306° |
| 2026-05-07 23:07 | 58.75225 | -95.93297 | 33762 ft | 482 kts | 306° |
| 2026-05-07 23:07 | 58.78852 | -96.04171 | 33758 ft | 482 kts | 306° |
| 2026-05-07 23:08 | 58.82444 | -96.14991 | 33755 ft | 482 kts | 305° |
| 2026-05-07 23:08 | 58.86053 | -96.25911 | 33768 ft | 482 kts | 305° |
| 2026-05-07 23:09 | 58.89648 | -96.36838 | 33750 ft | 481 kts | 305° |
| 2026-05-07 23:09 | 58.93232 | -96.47783 | 33776 ft | 481 kts | 305° |
| 2026-05-07 23:10 | 58.96813 | -96.58772 | 33779 ft | 481 kts | 305° |
| 2026-05-07 23:10 | 59.00365 | -96.69721 | 33784 ft | 481 kts | 305° |
| 2026-05-07 23:11 | 59.03921 | -96.80735 | 33789 ft | 481 kts | 305° |
| 2026-05-07 23:11 | 59.07470 | -96.91778 | 33783 ft | 481 kts | 305° |
| 2026-05-07 23:12 | 59.11011 | -97.02850 | 33791 ft | 481 kts | 305° |
| 2026-05-07 23:12 | 59.14511 | -97.13842 | 33794 ft | 481 kts | 305° |
| 2026-05-07 23:13 | 59.18024 | -97.24932 | 33797 ft | 480 kts | 304° |
| 2026-05-07 23:13 | 59.21529 | -97.36047 | 33802 ft | 480 kts | 304° |
| 2026-05-07 23:14 | 59.25009 | -97.47135 | 33808 ft | 480 kts | 304° |
| 2026-05-07 23:14 | 59.28494 | -97.58292 | 33809 ft | 480 kts | 304° |
| 2026-05-07 23:15 | 59.31966 | -97.69460 | 33813 ft | 480 kts | 304° |
| 2026-05-07 23:15 | 59.35405 | -97.80577 | 33816 ft | 480 kts | 304° |
| 2026-05-07 23:16 | 59.38857 | -97.91786 | 33816 ft | 479 kts | 304° |
| 2026-05-07 23:16 | 59.42296 | -98.03012 | 33825 ft | 479 kts | 304° |
| 2026-05-07 23:17 | 59.45730 | -98.14272 | 33827 ft | 479 kts | 304° |
| 2026-05-07 23:17 | 59.48569 | -98.23623 | 33830 ft | 479 kts | 304° |
| 2026-05-07 23:18 | 59.52532 | -98.36741 | 33847 ft | 479 kts | 304° |
| 2026-05-07 23:18 | 59.55926 | -98.48034 | 33828 ft | 479 kts | 304° |
| 2026-05-07 23:19 | 59.58745 | -98.57455 | 33842 ft | 478 kts | 304° |
| 2026-05-07 23:19 | 59.62121 | -98.68790 | 33838 ft | 478 kts | 304° |
| 2026-05-07 23:20 | 59.65486 | -98.80143 | 33848 ft | 478 kts | 304° |
| 2026-05-07 23:20 | 59.68836 | -98.91499 | 33852 ft | 478 kts | 303° |
| 2026-05-07 23:21 | 59.72161 | -99.02829 | 33859 ft | 478 kts | 303° |
| 2026-05-07 23:21 | 59.75489 | -99.14225 | 33860 ft | 478 kts | 303° |
| 2026-05-07 23:22 | 59.78812 | -99.25663 | 33863 ft | 477 kts | 303° |
| 2026-05-07 23:22 | 59.82119 | -99.37100 | 33866 ft | 477 kts | 303° |
| 2026-05-07 23:23 | 59.85406 | -99.48523 | 33872 ft | 477 kts | 303° |
| 2026-05-07 23:23 | 59.88689 | -99.59992 | 33872 ft | 477 kts | 303° |
| 2026-05-07 23:24 | 59.91954 | -99.71454 | 33878 ft | 477 kts | 303° |
| 2026-05-07 23:24 | 59.95226 | -99.82999 | 33879 ft | 477 kts | 303° |
| 2026-05-07 23:25 | 59.98481 | -99.94540 | 33885 ft | 477 kts | 303° |
| 2026-05-07 23:25 | 60.01280 | -100.06540 | 33889 ft | 480 kts | 296° |
| 2026-05-07 23:26 | 60.03742 | -100.18972 | 33889 ft | 481 kts | 295° |
| 2026-05-07 23:26 | 60.06137 | -100.31439 | 33897 ft | 481 kts | 295° |
| 2026-05-07 23:27 | 60.09726 | -100.50227 | 33898 ft | 480 kts | 295° |
| 2026-05-07 23:27 | 60.12107 | -100.62744 | 33904 ft | 480 kts | 295° |
| 2026-05-07 23:28 | 60.14461 | -100.75188 | 33914 ft | 480 kts | 295° |
| 2026-05-07 23:28 | 60.16818 | -100.87735 | 33914 ft | 480 kts | 295° |
| 2026-05-07 23:29 | 60.19162 | -101.00290 | 33915 ft | 479 kts | 294° |
| 2026-05-07 23:29 | 60.21493 | -101.12858 | 33918 ft | 479 kts | 294° |
| 2026-05-07 23:30 | 60.23799 | -101.25372 | 33922 ft | 479 kts | 294° |
| 2026-05-07 23:30 | 60.26106 | -101.37977 | 33922 ft | 479 kts | 294° |
| 2026-05-07 23:31 | 60.28400 | -101.50592 | 33917 ft | 478 kts | 294° |
| 2026-05-07 23:31 | 60.30668 | -101.63147 | 33932 ft | 478 kts | 294° |
| 2026-05-07 23:32 | 60.32932 | -101.75763 | 33930 ft | 477 kts | 294° |
| 2026-05-07 23:32 | 60.35185 | -101.88402 | 33932 ft | 477 kts | 294° |
| 2026-05-07 23:33 | 60.37420 | -102.01023 | 33939 ft | 476 kts | 293° |
| 2026-05-07 23:33 | 60.39627 | -102.13571 | 33938 ft | 476 kts | 293° |
| 2026-05-07 23:34 | 60.41834 | -102.26204 | 33939 ft | 476 kts | 293° |
| 2026-05-07 23:34 | 60.44028 | -102.38850 | 33940 ft | 475 kts | 293° |
| 2026-05-07 23:35 | 60.46209 | -102.51508 | 33945 ft | 475 kts | 293° |
| 2026-05-07 23:35 | 60.48374 | -102.64155 | 33943 ft | 475 kts | 293° |
| 2026-05-07 23:36 | 60.50510 | -102.76719 | 33944 ft | 474 kts | 293° |
| 2026-05-07 23:36 | 60.52651 | -102.89406 | 33949 ft | 474 kts | 292° |
| 2026-05-07 23:37 | 60.54774 | -103.02072 | 33950 ft | 473 kts | 292° |
| 2026-05-07 23:37 | 60.56887 | -103.14761 | 33954 ft | 473 kts | 292° |
| 2026-05-07 23:38 | 60.58973 | -103.27378 | 33955 ft | 473 kts | 292° |
| 2026-05-07 23:38 | 60.61057 | -103.40072 | 33959 ft | 473 kts | 292° |
| 2026-05-07 23:39 | 60.63130 | -103.52793 | 33965 ft | 473 kts | 292° |
| 2026-05-07 23:39 | 60.65191 | -103.65524 | 33963 ft | 472 kts | 292° |
| 2026-05-07 23:40 | 60.67237 | -103.78257 | 33977 ft | 472 kts | 292° |
| 2026-05-07 23:40 | 60.69272 | -103.91009 | 33983 ft | 472 kts | 291° |
| 2026-05-07 23:41 | 60.71295 | -104.03778 | 33982 ft | 472 kts | 291° |
| 2026-05-07 23:41 | 60.73306 | -104.16571 | 33993 ft | 473 kts | 291° |
| 2026-05-07 23:42 | 60.75305 | -104.29379 | 33996 ft | 473 kts | 291° |
| 2026-05-07 23:42 | 60.77279 | -104.42118 | 34003 ft | 473 kts | 291° |
| 2026-05-07 23:43 | 60.79255 | -104.54963 | 34007 ft | 473 kts | 291° |
| 2026-05-07 23:43 | 60.81217 | -104.67815 | 34015 ft | 473 kts | 290° |
| 2026-05-07 23:44 | 60.83169 | -104.80698 | 34014 ft | 473 kts | 290° |
| 2026-05-07 23:44 | 60.85112 | -104.93611 | 34017 ft | 474 kts | 290° |
| 2026-05-07 23:45 | 60.87034 | -105.06489 | 34017 ft | 474 kts | 290° |
| 2026-05-07 23:45 | 60.88952 | -105.19444 | 34017 ft | 475 kts | 290° |
| 2026-05-07 23:46 | 60.90865 | -105.32456 | 34015 ft | 475 kts | 289° |
| 2026-05-07 23:46 | 60.92764 | -105.45483 | 34015 ft | 476 kts | 289° |
| 2026-05-07 23:47 | 60.94650 | -105.58521 | 34018 ft | 476 kts | 289° |
| 2026-05-07 23:47 | 60.96526 | -105.71588 | 34023 ft | 476 kts | 289° |
| 2026-05-07 23:48 | 60.98390 | -105.84681 | 34020 ft | 476 kts | 289° |
| 2026-05-07 23:48 | 61.00243 | -105.97790 | 34023 ft | 476 kts | 288° |
| 2026-05-07 23:49 | 61.02070 | -106.10825 | 34026 ft | 477 kts | 288° |
| 2026-05-07 23:49 | 61.03899 | -106.23979 | 34025 ft | 477 kts | 288° |
| 2026-05-07 23:50 | 61.05714 | -106.37146 | 34028 ft | 477 kts | 288° |
| 2026-05-07 23:50 | 61.07520 | -106.50352 | 34029 ft | 477 kts | 288° |
| 2026-05-07 23:51 | 61.09312 | -106.63567 | 34029 ft | 477 kts | 287° |
| 2026-05-07 23:51 | 61.11081 | -106.76721 | 34026 ft | 477 kts | 287° |
| 2026-05-07 23:52 | 61.12849 | -106.89979 | 34022 ft | 477 kts | 287° |
| 2026-05-07 23:52 | 61.14600 | -107.03217 | 34024 ft | 477 kts | 287° |
| 2026-05-07 23:53 | 61.16339 | -107.16476 | 34020 ft | 477 kts | 287° |
| 2026-05-07 23:53 | 61.18063 | -107.29745 | 34018 ft | 476 kts | 287° |
| 2026-05-07 23:54 | 61.19773 | -107.43011 | 34014 ft | 477 kts | 286° |
| 2026-05-07 23:54 | 61.21472 | -107.56310 | 34009 ft | 477 kts | 286° |
| 2026-05-07 23:55 | 61.23150 | -107.69555 | 34009 ft | 477 kts | 286° |
| 2026-05-07 23:55 | 61.24827 | -107.82911 | 34006 ft | 477 kts | 286° |
| 2026-05-07 23:56 | 61.26490 | -107.96277 | 34011 ft | 477 kts | 285° |
| 2026-05-07 23:56 | 61.28140 | -108.09658 | 34004 ft | 477 kts | 285° |
| 2026-05-07 23:57 | 61.29777 | -108.23056 | 34004 ft | 478 kts | 285° |
| 2026-05-07 23:57 | 61.31399 | -108.36457 | 33996 ft | 478 kts | 285° |
| 2026-05-07 23:58 | 61.33013 | -108.49902 | 33998 ft | 478 kts | 285° |
| 2026-05-07 23:58 | 61.34604 | -108.63293 | 33998 ft | 479 kts | 284° |
| 2026-05-07 23:59 | 61.36193 | -108.76788 | 33994 ft | 478 kts | 284° |
| 2026-05-07 23:59 | 61.37768 | -108.90285 | 33998 ft | 478 kts | 284° |
| 2026-05-08 00:00 | 61.39319 | -109.03709 | 33982 ft | 478 kts | 284° |
| 2026-05-08 00:00 | 61.40864 | -109.17206 | 33998 ft | 478 kts | 284° |
| 2026-05-08 00:01 | 61.42396 | -109.30726 | 33990 ft | 478 kts | 284° |
| 2026-05-08 00:01 | 61.43908 | -109.44196 | 33991 ft | 478 kts | 283° |
| 2026-05-08 00:02 | 61.45416 | -109.57763 | 33995 ft | 479 kts | 283° |
| 2026-05-08 00:02 | 61.46908 | -109.71323 | 33983 ft | 479 kts | 283° |
| 2026-05-08 00:03 | 61.48391 | -109.84939 | 33981 ft | 479 kts | 283° |
| 2026-05-08 00:03 | 61.49920 | -109.98450 | 33996 ft | 479 kts | 287° |
| 2026-05-08 00:04 | 61.52235 | -110.11528 | 33979 ft | 479 kts | 291° |
| 2026-05-08 00:04 | 61.54732 | -110.24497 | 33988 ft | 480 kts | 292° |
| 2026-05-08 00:05 | 61.57250 | -110.37486 | 33987 ft | 480 kts | 292° |
| 2026-05-08 00:05 | 61.59744 | -110.50497 | 33973 ft | 481 kts | 291° |
| 2026-05-08 00:06 | 61.62223 | -110.63559 | 33981 ft | 481 kts | 291° |
| 2026-05-08 00:06 | 61.64277 | -110.74460 | 33981 ft | 481 kts | 291° |
| 2026-05-08 00:07 | 61.66732 | -110.87575 | 33969 ft | 481 kts | 291° |
| 2026-05-08 00:07 | 61.69161 | -111.00631 | 33986 ft | 481 kts | 291° |
| 2026-05-08 00:08 | 61.71592 | -111.13785 | 33973 ft | 481 kts | 291° |
| 2026-05-08 00:08 | 61.74008 | -111.26946 | 33985 ft | 481 kts | 291° |
| 2026-05-08 00:09 | 61.76413 | -111.40135 | 33973 ft | 481 kts | 290° |
| 2026-05-08 00:09 | 61.78802 | -111.53333 | 33989 ft | 480 kts | 290° |
| 2026-05-08 00:10 | 61.81162 | -111.66455 | 33980 ft | 480 kts | 290° |
| 2026-05-08 00:10 | 61.83527 | -111.79701 | 33993 ft | 480 kts | 290° |
| 2026-05-08 00:11 | 61.85874 | -111.92931 | 33997 ft | 479 kts | 290° |
| 2026-05-08 00:11 | 61.88205 | -112.06171 | 33984 ft | 479 kts | 290° |
| 2026-05-08 00:12 | 61.90514 | -112.19370 | 34004 ft | 480 kts | 290° |
| 2026-05-08 00:12 | 61.92827 | -112.32688 | 34007 ft | 480 kts | 290° |
| 2026-05-08 00:13 | 61.95123 | -112.45999 | 33993 ft | 480 kts | 289° |
| 2026-05-08 00:13 | 61.97411 | -112.59363 | 34013 ft | 480 kts | 289° |
| 2026-05-08 00:14 | 61.99677 | -112.72690 | 33995 ft | 480 kts | 289° |
| 2026-05-08 00:14 | 62.01938 | -112.86085 | 33992 ft | 480 kts | 289° |
| 2026-05-08 00:15 | 62.04185 | -112.99496 | 34000 ft | 480 kts | 289° |
| 2026-05-08 00:15 | 62.06405 | -113.12837 | 33995 ft | 480 kts | 289° |
| 2026-05-08 00:16 | 62.08622 | -113.26266 | 33992 ft | 480 kts | 289° |
| 2026-05-08 00:16 | 62.10829 | -113.39728 | 33991 ft | 480 kts | 289° |
| 2026-05-08 00:17 | 62.13030 | -113.53248 | 33992 ft | 480 kts | 288° |
| 2026-05-08 00:17 | 62.15212 | -113.66761 | 33991 ft | 481 kts | 288° |
| 2026-05-08 00:18 | 62.17368 | -113.80207 | 33993 ft | 481 kts | 288° |
| 2026-05-08 00:18 | 62.19528 | -113.93782 | 33993 ft | 481 kts | 288° |
| 2026-05-08 00:19 | 62.21671 | -114.07356 | 33992 ft | 481 kts | 288° |
| 2026-05-08 00:19 | 62.23807 | -114.20984 | 33997 ft | 481 kts | 288° |
| 2026-05-08 00:20 | 62.25924 | -114.34599 | 33998 ft | 481 kts | 288° |
| 2026-05-08 00:20 | 62.28030 | -114.48245 | 33995 ft | 481 kts | 288° |
| 2026-05-08 00:21 | 62.30113 | -114.61848 | 33998 ft | 481 kts | 287° |
| 2026-05-08 00:21 | 62.32193 | -114.75542 | 33999 ft | 481 kts | 287° |
| 2026-05-08 00:22 | 62.34261 | -114.89259 | 34003 ft | 481 kts | 287° |
| 2026-05-08 00:22 | 62.36315 | -115.02994 | 34011 ft | 481 kts | 287° |
| 2026-05-08 00:23 | 62.38354 | -115.16739 | 34016 ft | 481 kts | 287° |
| 2026-05-08 00:23 | 62.40370 | -115.30438 | 34018 ft | 482 kts | 287° |
| 2026-05-08 00:24 | 62.42384 | -115.44231 | 34023 ft | 482 kts | 287° |
| 2026-05-08 00:24 | 62.44383 | -115.58040 | 34019 ft | 482 kts | 287° |
| 2026-05-08 00:25 | 62.46372 | -115.71886 | 34021 ft | 482 kts | 287° |
| 2026-05-08 00:25 | 62.48347 | -115.85750 | 34022 ft | 482 kts | 286° |
| 2026-05-08 00:26 | 62.50295 | -115.99539 | 34021 ft | 482 kts | 286° |
| 2026-05-08 00:26 | 62.52245 | -116.13461 | 34025 ft | 482 kts | 286° |
| 2026-05-08 00:27 | 62.54179 | -116.27381 | 34025 ft | 482 kts | 286° |
| 2026-05-08 00:27 | 62.56101 | -116.41332 | 34025 ft | 482 kts | 286° |
| 2026-05-08 00:28 | 62.57995 | -116.55203 | 34027 ft | 482 kts | 286° |
| 2026-05-08 00:28 | 62.59887 | -116.69172 | 34027 ft | 482 kts | 285° |
| 2026-05-08 00:29 | 62.61768 | -116.83186 | 34031 ft | 482 kts | 285° |
| 2026-05-08 00:29 | 62.63632 | -116.97196 | 34034 ft | 482 kts | 285° |
| 2026-05-08 00:30 | 62.65485 | -117.11247 | 34034 ft | 482 kts | 285° |
| 2026-05-08 00:30 | 62.67319 | -117.25268 | 34043 ft | 482 kts | 285° |
| 2026-05-08 00:31 | 62.69133 | -117.39273 | 34048 ft | 482 kts | 285° |
| 2026-05-08 00:31 | 62.70939 | -117.53331 | 34054 ft | 482 kts | 285° |
| 2026-05-08 00:32 | 62.72731 | -117.67411 | 34061 ft | 482 kts | 285° |
| 2026-05-08 00:32 | 62.74499 | -117.81435 | 34062 ft | 481 kts | 285° |
| 2026-05-08 00:33 | 62.76262 | -117.95538 | 34069 ft | 481 kts | 285° |
| 2026-05-08 00:33 | 62.78010 | -118.09652 | 34074 ft | 481 kts | 284° |
| 2026-05-08 00:34 | 62.79740 | -118.23760 | 34080 ft | 481 kts | 284° |
| 2026-05-08 00:34 | 62.81456 | -118.37875 | 34083 ft | 480 kts | 284° |
| 2026-05-08 00:35 | 62.83146 | -118.51915 | 34087 ft | 480 kts | 284° |
| 2026-05-08 00:35 | 62.84833 | -118.66061 | 34090 ft | 480 kts | 284° |
| 2026-05-08 00:36 | 62.86511 | -118.80265 | 34090 ft | 480 kts | 284° |
| 2026-05-08 00:36 | 62.88173 | -118.94475 | 34094 ft | 480 kts | 284° |
| 2026-05-08 00:37 | 62.89807 | -119.08584 | 34093 ft | 480 kts | 284° |
| 2026-05-08 00:38 | 62.92250 | -119.29930 | 34094 ft | 480 kts | 284° |
| 2026-05-08 00:38 | 62.93860 | -119.44178 | 34093 ft | 480 kts | 283° |
| 2026-05-08 00:39 | 62.95453 | -119.58415 | 34094 ft | 480 kts | 283° |
| 2026-05-08 00:39 | 62.97021 | -119.72567 | 34098 ft | 479 kts | 283° |
| 2026-05-08 00:40 | 62.98584 | -119.86824 | 34097 ft | 479 kts | 283° |
| 2026-05-08 00:40 | 62.99960 | -120.01150 | 34100 ft | 479 kts | 276° |
| 2026-05-08 00:41 | 63.00589 | -120.15783 | 34101 ft | 478 kts | 275° |
| 2026-05-08 00:41 | 63.01077 | -120.30313 | 34099 ft | 478 kts | 274° |
| 2026-05-08 00:42 | 63.01537 | -120.44920 | 34097 ft | 478 kts | 274° |
| 2026-05-08 00:42 | 63.01991 | -120.59520 | 34094 ft | 477 kts | 274° |
| 2026-05-08 00:43 | 63.02437 | -120.74106 | 34091 ft | 477 kts | 274° |
| 2026-05-08 00:43 | 63.02869 | -120.88689 | 34090 ft | 476 kts | 274° |
| 2026-05-08 00:44 | 63.03282 | -121.03157 | 34091 ft | 476 kts | 274° |
| 2026-05-08 00:44 | 63.03683 | -121.17715 | 34090 ft | 476 kts | 274° |
| 2026-05-08 00:45 | 63.04069 | -121.32275 | 34084 ft | 475 kts | 273° |
| 2026-05-08 00:45 | 63.04439 | -121.46840 | 34090 ft | 475 kts | 273° |
| 2026-05-08 00:46 | 63.04793 | -121.61349 | 34094 ft | 474 kts | 273° |
| 2026-05-08 00:46 | 63.05133 | -121.75861 | 34097 ft | 474 kts | 273° |
| 2026-05-08 00:47 | 63.05455 | -121.90280 | 34095 ft | 473 kts | 273° |
| 2026-05-08 00:47 | 63.05764 | -122.04766 | 34101 ft | 473 kts | 273° |
| 2026-05-08 00:48 | 63.06059 | -122.19259 | 34102 ft | 472 kts | 273° |
| 2026-05-08 00:48 | 63.06338 | -122.33742 | 34104 ft | 472 kts | 272° |
| 2026-05-08 00:49 | 63.06603 | -122.48221 | 34105 ft | 472 kts | 272° |
| 2026-05-08 00:49 | 63.06852 | -122.62677 | 34108 ft | 471 kts | 272° |
| 2026-05-08 00:50 | 63.07085 | -122.77057 | 34110 ft | 471 kts | 272° |
| 2026-05-08 00:50 | 63.07305 | -122.91485 | 34113 ft | 470 kts | 272° |
| 2026-05-08 00:51 | 63.07509 | -123.05917 | 34117 ft | 470 kts | 272° |
| 2026-05-08 00:51 | 63.07699 | -123.20339 | 34116 ft | 469 kts | 272° |
| 2026-05-08 00:52 | 63.07874 | -123.34736 | 34108 ft | 469 kts | 272° |
| 2026-05-08 00:52 | 63.08033 | -123.49011 | 34104 ft | 468 kts | 272° |
| 2026-05-08 00:53 | 63.08179 | -123.63375 | 34098 ft | 468 kts | 272° |
| 2026-05-08 00:53 | 63.08288 | -123.75325 | 34100 ft | 467 kts | 271° |
| 2026-05-08 00:54 | 63.08425 | -123.92003 | 34101 ft | 467 kts | 271° |
| 2026-05-08 00:54 | 63.08512 | -124.04017 | 34105 ft | 466 kts | 271° |
| 2026-05-08 00:55 | 63.08601 | -124.18240 | 34107 ft | 466 kts | 271° |
| 2026-05-08 00:55 | 63.08676 | -124.32548 | 34110 ft | 465 kts | 271° |
| 2026-05-08 00:56 | 63.08736 | -124.46840 | 34111 ft | 465 kts | 271° |
| 2026-05-08 00:56 | 63.08783 | -124.61120 | 34109 ft | 465 kts | 271° |
| 2026-05-08 00:57 | 63.08814 | -124.75302 | 34112 ft | 464 kts | 271° |
| 2026-05-08 00:57 | 63.08832 | -124.89548 | 34112 ft | 464 kts | 270° |
| 2026-05-08 00:58 | 63.08835 | -125.03789 | 34116 ft | 463 kts | 270° |
| 2026-05-08 00:58 | 63.08825 | -125.17926 | 34117 ft | 463 kts | 270° |
| 2026-05-08 00:59 | 63.08799 | -125.32122 | 34125 ft | 462 kts | 270° |
| 2026-05-08 00:59 | 63.08760 | -125.46318 | 34129 ft | 462 kts | 270° |
| 2026-05-08 01:00 | 63.08707 | -125.60510 | 34136 ft | 462 kts | 270° |
| 2026-05-08 01:00 | 63.08637 | -125.74701 | 34139 ft | 461 kts | 270° |
| 2026-05-08 01:01 | 63.08557 | -125.88779 | 34143 ft | 461 kts | 270° |
| 2026-05-08 01:01 | 63.08462 | -126.02925 | 34145 ft | 460 kts | 269° |
| 2026-05-08 01:02 | 63.08354 | -126.16974 | 34146 ft | 459 kts | 269° |
| 2026-05-08 01:02 | 63.08231 | -126.31056 | 34149 ft | 459 kts | 269° |
| 2026-05-08 01:03 | 63.08094 | -126.45133 | 34141 ft | 459 kts | 269° |
| 2026-05-08 01:03 | 63.07942 | -126.59222 | 34146 ft | 458 kts | 269° |
| 2026-05-08 01:04 | 63.07777 | -126.73281 | 34146 ft | 458 kts | 269° |
| 2026-05-08 01:04 | 63.07598 | -126.87316 | 34152 ft | 457 kts | 269° |
| 2026-05-08 01:05 | 63.07407 | -127.01281 | 34153 ft | 457 kts | 269° |
| 2026-05-08 01:05 | 63.07201 | -127.15315 | 34156 ft | 457 kts | 268° |
| 2026-05-08 01:06 | 63.06981 | -127.29353 | 34151 ft | 456 kts | 268° |
| 2026-05-08 01:06 | 63.06749 | -127.43288 | 34154 ft | 456 kts | 268° |
| 2026-05-08 01:07 | 63.06503 | -127.57274 | 34147 ft | 455 kts | 268° |
| 2026-05-08 01:07 | 63.06241 | -127.71249 | 34146 ft | 456 kts | 268° |
| 2026-05-08 01:08 | 63.05969 | -127.85122 | 34137 ft | 455 kts | 268° |
| 2026-05-08 01:08 | 63.05681 | -127.99093 | 34139 ft | 455 kts | 268° |
| 2026-05-08 01:09 | 63.05381 | -128.13035 | 34136 ft | 454 kts | 268° |
| 2026-05-08 01:09 | 63.05069 | -128.26872 | 34127 ft | 453 kts | 267° |
| 2026-05-08 01:10 | 63.04741 | -128.40786 | 34127 ft | 453 kts | 267° |
| 2026-05-08 01:10 | 63.04402 | -128.54562 | 34120 ft | 452 kts | 267° |
| 2026-05-08 01:11 | 63.04047 | -128.68439 | 34120 ft | 452 kts | 267° |
| 2026-05-08 01:11 | 63.03681 | -128.82266 | 34117 ft | 451 kts | 267° |
| 2026-05-08 01:12 | 63.03301 | -128.96084 | 34115 ft | 451 kts | 267° |
| 2026-05-08 01:12 | 63.02910 | -129.09792 | 34111 ft | 451 kts | 266° |
| 2026-05-08 01:13 | 63.02505 | -129.23561 | 34109 ft | 450 kts | 266° |
| 2026-05-08 01:13 | 63.02086 | -129.37321 | 34105 ft | 450 kts | 266° |
| 2026-05-08 01:14 | 63.01655 | -129.51070 | 34104 ft | 450 kts | 266° |
| 2026-05-08 01:14 | 63.01212 | -129.64751 | 34116 ft | 449 kts | 266° |
| 2026-05-08 01:15 | 63.00754 | -129.78492 | 34110 ft | 449 kts | 266° |
| 2026-05-08 01:15 | 63.00282 | -129.92197 | 34117 ft | 448 kts | 266° |
| 2026-05-08 01:16 | 63.00237 | -130.05934 | 34107 ft | 448 kts | 273° |
| 2026-05-08 01:16 | 63.00650 | -130.19529 | 34101 ft | 448 kts | 274° |
| 2026-05-08 01:17 | 63.01122 | -130.33241 | 34100 ft | 448 kts | 274° |
| 2026-05-08 01:17 | 63.01576 | -130.46829 | 34098 ft | 447 kts | 274° |
| 2026-05-08 01:18 | 63.02010 | -130.60523 | 34097 ft | 447 kts | 273° |
| 2026-05-08 01:18 | 63.02423 | -130.74191 | 34089 ft | 447 kts | 273° |
| 2026-05-08 01:19 | 63.02825 | -130.87863 | 34082 ft | 447 kts | 273° |
| 2026-05-08 01:19 | 63.03213 | -131.01523 | 34080 ft | 447 kts | 273° |
| 2026-05-08 01:20 | 63.03587 | -131.15107 | 34070 ft | 447 kts | 273° |
| 2026-05-08 01:20 | 63.03949 | -131.28794 | 34072 ft | 447 kts | 273° |
| 2026-05-08 01:21 | 63.04297 | -131.42472 | 34068 ft | 447 kts | 272° |
| 2026-05-08 01:21 | 63.04633 | -131.56151 | 34057 ft | 447 kts | 272° |
| 2026-05-08 01:22 | 63.04957 | -131.69769 | 34057 ft | 447 kts | 272° |
| 2026-05-08 01:22 | 63.05266 | -131.83466 | 34058 ft | 447 kts | 272° |
| 2026-05-08 01:23 | 63.05560 | -131.97159 | 34049 ft | 447 kts | 272° |
| 2026-05-08 01:23 | 63.05841 | -132.10847 | 34053 ft | 447 kts | 272° |
| 2026-05-08 01:24 | 63.06113 | -132.24463 | 34050 ft | 447 kts | 272° |
| 2026-05-08 01:24 | 63.06370 | -132.38178 | 34048 ft | 447 kts | 272° |
| 2026-05-08 01:25 | 63.06613 | -132.51886 | 34054 ft | 447 kts | 271° |
| 2026-05-08 01:25 | 63.06843 | -132.65509 | 34050 ft | 447 kts | 271° |
| 2026-05-08 01:26 | 63.07060 | -132.79223 | 34046 ft | 446 kts | 271° |
| 2026-05-08 01:26 | 63.07263 | -132.92926 | 34045 ft | 446 kts | 271° |
| 2026-05-08 01:27 | 63.07452 | -133.06556 | 34047 ft | 446 kts | 271° |
| 2026-05-08 01:27 | 63.07630 | -133.20245 | 34050 ft | 445 kts | 271° |
| 2026-05-08 01:28 | 63.07793 | -133.33841 | 34054 ft | 445 kts | 271° |
| 2026-05-08 01:28 | 63.07943 | -133.47527 | 34054 ft | 445 kts | 271° |
| 2026-05-08 01:29 | 63.08081 | -133.61203 | 34055 ft | 445 kts | 270° |
| 2026-05-08 01:29 | 63.08205 | -133.74816 | 34060 ft | 445 kts | 270° |
| 2026-05-08 01:30 | 63.08316 | -133.88482 | 34061 ft | 445 kts | 270° |
| 2026-05-08 01:30 | 63.08414 | -134.02155 | 34063 ft | 445 kts | 270° |
| 2026-05-08 01:31 | 63.08497 | -134.15778 | 34062 ft | 446 kts | 270° |
| 2026-05-08 01:31 | 63.08570 | -134.29464 | 34065 ft | 446 kts | 270° |
| 2026-05-08 01:32 | 63.08629 | -134.43166 | 34072 ft | 446 kts | 270° |
| 2026-05-08 01:32 | 63.08674 | -134.56762 | 34070 ft | 446 kts | 270° |
| 2026-05-08 01:33 | 63.08705 | -134.70453 | 34075 ft | 445 kts | 269° |
| 2026-05-08 01:33 | 63.08723 | -134.84128 | 34075 ft | 445 kts | 269° |
| 2026-05-08 01:34 | 63.08730 | -134.97824 | 34073 ft | 445 kts | 269° |
| 2026-05-08 01:34 | 63.08723 | -135.11481 | 34080 ft | 445 kts | 269° |
| 2026-05-08 01:35 | 63.08703 | -135.25084 | 34073 ft | 445 kts | 269° |
| 2026-05-08 01:35 | 63.08671 | -135.38742 | 34074 ft | 445 kts | 269° |
| 2026-05-08 01:36 | 63.08623 | -135.52422 | 34081 ft | 445 kts | 268° |
| 2026-05-08 01:36 | 63.08563 | -135.66095 | 34092 ft | 445 kts | 268° |
| 2026-05-08 01:37 | 63.08490 | -135.79655 | 34093 ft | 445 kts | 268° |
| 2026-05-08 01:37 | 63.08404 | -135.93322 | 34096 ft | 445 kts | 268° |
| 2026-05-08 01:38 | 63.08303 | -136.06983 | 34092 ft | 445 kts | 268° |
| 2026-05-08 01:38 | 63.08191 | -136.20644 | 34083 ft | 445 kts | 268° |
| 2026-05-08 01:39 | 63.08067 | -136.34337 | 34078 ft | 445 kts | 268° |
| 2026-05-08 01:39 | 63.07929 | -136.47928 | 34072 ft | 445 kts | 268° |
| 2026-05-08 01:40 | 63.07777 | -136.61592 | 34066 ft | 445 kts | 267° |
| 2026-05-08 01:40 | 63.07611 | -136.75257 | 34056 ft | 445 kts | 267° |
| 2026-05-08 01:41 | 63.07433 | -136.88911 | 34047 ft | 445 kts | 267° |
| 2026-05-08 01:41 | 63.07242 | -137.02553 | 34040 ft | 445 kts | 267° |
| 2026-05-08 01:42 | 63.07037 | -137.16219 | 34035 ft | 445 kts | 267° |
| 2026-05-08 01:42 | 63.06857 | -137.27570 | 34032 ft | 445 kts | 266° |
| 2026-05-08 01:43 | 63.06589 | -137.43488 | 34026 ft | 445 kts | 266° |
| 2026-05-08 01:43 | 63.06387 | -137.54833 | 34020 ft | 446 kts | 266° |
| 2026-05-08 01:44 | 63.06133 | -137.68493 | 34016 ft | 446 kts | 266° |
| 2026-05-08 01:44 | 63.05864 | -137.82185 | 34010 ft | 446 kts | 266° |
| 2026-05-08 01:45 | 63.05582 | -137.95875 | 34001 ft | 446 kts | 266° |
| 2026-05-08 01:45 | 63.05288 | -138.09566 | 33999 ft | 446 kts | 266° |
| 2026-05-08 01:46 | 63.04983 | -138.23158 | 33996 ft | 446 kts | 265° |
| 2026-05-08 01:46 | 63.04661 | -138.36829 | 34002 ft | 447 kts | 265° |
| 2026-05-08 01:47 | 63.04324 | -138.50528 | 34004 ft | 446 kts | 265° |
| 2026-05-08 01:47 | 63.03975 | -138.64206 | 34007 ft | 446 kts | 265° |
| 2026-05-08 01:48 | 63.03432 | -138.84630 | 34015 ft | 446 kts | 265° |
| 2026-05-08 01:48 | 63.03051 | -138.98311 | 34020 ft | 447 kts | 265° |
| 2026-05-08 01:49 | 63.02654 | -139.12020 | 34021 ft | 447 kts | 265° |
| 2026-05-08 01:49 | 63.02251 | -139.25582 | 34024 ft | 447 kts | 264° |
| 2026-05-08 01:50 | 63.01830 | -139.39276 | 34018 ft | 447 kts | 264° |
| 2026-05-08 01:50 | 63.01394 | -139.52957 | 34016 ft | 448 kts | 264° |
| 2026-05-08 01:51 | 63.00948 | -139.66578 | 34012 ft | 448 kts | 264° |
| 2026-05-08 01:51 | 63.00485 | -139.80273 | 34016 ft | 448 kts | 264° |
| 2026-05-08 01:52 | 63.00012 | -139.93946 | 34016 ft | 448 kts | 264° |
| 2026-05-08 01:52 | 62.99527 | -140.07555 | 34010 ft | 448 kts | 264° |
| 2026-05-08 01:53 | 62.99025 | -140.21262 | 34009 ft | 448 kts | 263° |
| 2026-05-08 01:53 | 62.98511 | -140.34948 | 34009 ft | 448 kts | 263° |
| 2026-05-08 01:54 | 62.97981 | -140.48647 | 34009 ft | 449 kts | 263° |
| 2026-05-08 01:54 | 62.97443 | -140.62243 | 34010 ft | 449 kts | 263° |
| 2026-05-08 01:55 | 62.96890 | -140.75909 | 34008 ft | 448 kts | 263° |
| 2026-05-08 01:55 | 62.96322 | -140.89572 | 34007 ft | 449 kts | 263° |
| 2026-05-08 01:56 | 62.95747 | -141.03247 | 34009 ft | 449 kts | 263° |
| 2026-05-08 01:56 | 62.95534 | -141.16981 | 34013 ft | 450 kts | 267° |
| 2026-05-08 01:57 | 62.95494 | -141.30647 | 34006 ft | 450 kts | 267° |
| 2026-05-08 01:57 | 62.95391 | -141.44373 | 34002 ft | 449 kts | 266° |
| 2026-05-08 01:58 | 62.95225 | -141.58114 | 33991 ft | 449 kts | 266° |
| 2026-05-08 01:58 | 62.95028 | -141.71846 | 33986 ft | 449 kts | 265° |
| 2026-05-08 01:59 | 62.94722 | -141.85463 | 33974 ft | 448 kts | 261° |
| 2026-05-08 01:59 | 62.93164 | -141.98627 | 33988 ft | 445 kts | 247° |
| 2026-05-08 02:00 | 62.90690 | -142.11115 | 33983 ft | 446 kts | 245° |
| 2026-05-08 02:00 | 62.88071 | -142.23482 | 33993 ft | 446 kts | 245° |
| 2026-05-08 02:01 | 62.85442 | -142.35826 | 33996 ft | 446 kts | 245° |
| 2026-05-08 02:01 | 62.82840 | -142.48094 | 34014 ft | 446 kts | 245° |
| 2026-05-08 02:02 | 62.80218 | -142.60428 | 34043 ft | 446 kts | 245° |
| 2026-05-08 02:02 | 62.77607 | -142.72650 | 34043 ft | 446 kts | 245° |
| 2026-05-08 02:03 | 62.74970 | -142.84919 | 34050 ft | 446 kts | 245° |
| 2026-05-08 02:03 | 62.72321 | -142.97163 | 34063 ft | 446 kts | 244° |
| 2026-05-08 02:04 | 62.69660 | -143.09396 | 34064 ft | 447 kts | 244° |
| 2026-05-08 02:04 | 62.66984 | -143.21624 | 34066 ft | 447 kts | 244° |
| 2026-05-08 02:05 | 62.64313 | -143.33761 | 34068 ft | 447 kts | 244° |
| 2026-05-08 02:05 | 62.61615 | -143.45950 | 34076 ft | 448 kts | 244° |
| 2026-05-08 02:06 | 62.58897 | -143.58157 | 34070 ft | 448 kts | 244° |
| 2026-05-08 02:06 | 62.56174 | -143.70320 | 34075 ft | 448 kts | 244° |
| 2026-05-08 02:07 | 62.53435 | -143.82484 | 34079 ft | 449 kts | 244° |
| 2026-05-08 02:07 | 62.50694 | -143.94585 | 34082 ft | 449 kts | 244° |
| 2026-05-08 02:08 | 62.47932 | -144.06709 | 34082 ft | 450 kts | 243° |
| 2026-05-08 02:08 | 62.45153 | -144.18840 | 34092 ft | 450 kts | 243° |
| 2026-05-08 02:09 | 62.42367 | -144.30941 | 34083 ft | 450 kts | 243° |
| 2026-05-08 02:09 | 62.39579 | -144.42976 | 34089 ft | 451 kts | 243° |
| 2026-05-08 02:10 | 62.36765 | -144.55060 | 34089 ft | 451 kts | 243° |
| 2026-05-08 02:10 | 62.33943 | -144.67109 | 34084 ft | 451 kts | 243° |
| 2026-05-08 02:11 | 62.31103 | -144.79165 | 34083 ft | 451 kts | 243° |
| 2026-05-08 02:11 | 62.28258 | -144.91174 | 34067 ft | 451 kts | 243° |
| 2026-05-08 02:12 | 62.25423 | -145.03076 | 34057 ft | 451 kts | 243° |
| 2026-05-08 02:12 | 62.22554 | -145.15057 | 34050 ft | 451 kts | 243° |
| 2026-05-08 02:13 | 62.19671 | -145.27032 | 34040 ft | 451 kts | 243° |
| 2026-05-08 02:13 | 62.16796 | -145.38907 | 34037 ft | 451 kts | 243° |
| 2026-05-08 02:14 | 62.13961 | -145.50890 | 34039 ft | 451 kts | 245° |
| 2026-05-08 02:14 | 62.11549 | -145.63302 | 34026 ft | 451 kts | 248° |
| 2026-05-08 02:15 | 62.09216 | -145.75749 | 34051 ft | 451 kts | 247° |
| 2026-05-08 02:15 | 62.06824 | -145.88041 | 34052 ft | 451 kts | 246° |
| 2026-05-08 02:16 | 62.04368 | -146.00329 | 34077 ft | 450 kts | 246° |
| 2026-05-08 02:16 | 62.01890 | -146.12593 | 34076 ft | 449 kts | 246° |
| 2026-05-08 02:17 | 61.99407 | -146.24816 | 34079 ft | 449 kts | 246° |
| 2026-05-08 02:17 | 61.96934 | -146.36934 | 34083 ft | 449 kts | 246° |
| 2026-05-08 02:18 | 61.94436 | -146.49103 | 34081 ft | 448 kts | 246° |
| 2026-05-08 02:18 | 61.91927 | -146.61254 | 34083 ft | 448 kts | 245° |
| 2026-05-08 02:19 | 61.89429 | -146.73285 | 34083 ft | 448 kts | 245° |
| 2026-05-08 02:19 | 61.86905 | -146.85373 | 34085 ft | 448 kts | 245° |
| 2026-05-08 02:20 | 61.84363 | -146.97462 | 34088 ft | 449 kts | 245° |
| 2026-05-08 02:20 | 61.81813 | -147.09531 | 34086 ft | 449 kts | 245° |
| 2026-05-08 02:21 | 61.79248 | -147.21595 | 34084 ft | 450 kts | 245° |
| 2026-05-08 02:21 | 61.76690 | -147.33562 | 34096 ft | 450 kts | 245° |
| 2026-05-08 02:22 | 61.74096 | -147.45625 | 34081 ft | 451 kts | 245° |
| 2026-05-08 02:22 | 61.71487 | -147.57692 | 34087 ft | 452 kts | 245° |
| 2026-05-08 02:23 | 61.68863 | -147.69750 | 34108 ft | 453 kts | 245° |
| 2026-05-08 02:23 | 61.66226 | -147.81802 | 34087 ft | 454 kts | 244° |
| 2026-05-08 02:24 | 61.63571 | -147.93868 | 34098 ft | 455 kts | 244° |
| 2026-05-08 02:24 | 61.60897 | -148.05951 | 34089 ft | 455 kts | 244° |
| 2026-05-08 02:25 | 61.58229 | -148.17946 | 34102 ft | 456 kts | 244° |
| 2026-05-08 02:25 | 61.55529 | -148.30010 | 34082 ft | 456 kts | 244° |
| 2026-05-08 02:26 | 61.52816 | -148.42060 | 34069 ft | 457 kts | 244° |
| 2026-05-08 02:26 | 61.50111 | -148.54008 | 34070 ft | 457 kts | 244° |
| 2026-05-08 02:27 | 61.47378 | -148.66015 | 34051 ft | 457 kts | 244° |
| 2026-05-08 02:27 | 61.44636 | -148.77995 | 34042 ft | 457 kts | 244° |
| 2026-05-08 02:28 | 61.41894 | -148.89906 | 34057 ft | 457 kts | 244° |
| 2026-05-08 02:28 | 61.39127 | -149.01869 | 34045 ft | 457 kts | 244° |
| 2026-05-08 02:29 | 61.36349 | -149.13803 | 34075 ft | 457 kts | 244° |
| 2026-05-08 02:29 | 61.33556 | -149.25733 | 34095 ft | 457 kts | 244° |
| 2026-05-08 02:30 | 61.30758 | -149.37621 | 34078 ft | 457 kts | 243° |
| 2026-05-08 02:30 | 61.27960 | -149.49443 | 34049 ft | 457 kts | 243° |
| 2026-05-08 02:31 | 61.25139 | -149.61299 | 34065 ft | 457 kts | 243° |
| 2026-05-08 02:31 | 61.22785 | -149.71146 | 34056 ft | 457 kts | 243° |
| 2026-05-08 02:32 | 61.19491 | -149.84858 | 34055 ft | 457 kts | 243° |
| 2026-05-08 02:32 | 61.17633 | -149.95189 | 34058 ft | 457 kts | 255° |
| 2026-05-08 02:33 | 61.17004 | -150.08232 | 34057 ft | 461 kts | 268° |
| 2026-05-08 02:33 | 61.17205 | -150.21534 | 34054 ft | 462 kts | 270° |
| 2026-05-08 02:34 | 61.17499 | -150.34864 | 34056 ft | 462 kts | 270° |
| 2026-05-08 02:34 | 61.17758 | -150.48164 | 34053 ft | 461 kts | 270° |
| 2026-05-08 02:35 | 61.17976 | -150.61380 | 34056 ft | 461 kts | 269° |
| 2026-05-08 02:35 | 61.18175 | -150.74689 | 34050 ft | 461 kts | 269° |
| 2026-05-08 02:36 | 61.18360 | -150.87961 | 34050 ft | 461 kts | 269° |
| 2026-05-08 02:36 | 61.18533 | -151.01183 | 34048 ft | 461 kts | 269° |
| 2026-05-08 02:37 | 61.18694 | -151.14487 | 34041 ft | 461 kts | 269° |
| 2026-05-08 02:37 | 61.18842 | -151.27781 | 34039 ft | 461 kts | 269° |
| 2026-05-08 02:38 | 61.18977 | -151.41110 | 34036 ft | 462 kts | 269° |
| 2026-05-08 02:38 | 61.19100 | -151.54463 | 34036 ft | 463 kts | 269° |
| 2026-05-08 02:39 | 61.19209 | -151.67728 | 34031 ft | 463 kts | 269° |
| 2026-05-08 02:39 | 61.19306 | -151.81110 | 34035 ft | 464 kts | 269° |
| 2026-05-08 02:40 | 61.19389 | -151.94512 | 34037 ft | 464 kts | 269° |
| 2026-05-08 02:40 | 61.19459 | -152.07932 | 34045 ft | 465 kts | 269° |
| 2026-05-08 02:41 | 61.19515 | -152.21252 | 34044 ft | 465 kts | 269° |
| 2026-05-08 02:41 | 61.19560 | -152.34692 | 34041 ft | 465 kts | 269° |
| 2026-05-08 02:42 | 61.19591 | -152.48126 | 34048 ft | 465 kts | 269° |
| 2026-05-08 02:42 | 61.19608 | -152.61483 | 34048 ft | 466 kts | 269° |
| 2026-05-08 02:43 | 61.19611 | -152.74911 | 34043 ft | 466 kts | 269° |
| 2026-05-08 02:43 | 61.19602 | -152.88367 | 34044 ft | 466 kts | 268° |
| 2026-05-08 02:44 | 61.19579 | -153.01791 | 34040 ft | 465 kts | 268° |
| 2026-05-08 02:44 | 61.19544 | -153.15209 | 34039 ft | 465 kts | 268° |
| 2026-05-08 02:45 | 61.19496 | -153.28630 | 34044 ft | 464 kts | 268° |
| 2026-05-08 02:45 | 61.19434 | -153.41938 | 34047 ft | 464 kts | 268° |
| 2026-05-08 02:46 | 61.19358 | -153.55331 | 34047 ft | 464 kts | 268° |
| 2026-05-08 02:46 | 61.19269 | -153.68724 | 34044 ft | 464 kts | 268° |
| 2026-05-08 02:47 | 61.19167 | -153.82113 | 34044 ft | 464 kts | 268° |
| 2026-05-08 02:47 | 61.19053 | -153.95411 | 34042 ft | 464 kts | 268° |
| 2026-05-08 02:48 | 61.18925 | -154.08799 | 34038 ft | 465 kts | 268° |
| 2026-05-08 02:48 | 61.18782 | -154.22194 | 34036 ft | 465 kts | 268° |
| 2026-05-08 02:49 | 61.18628 | -154.35616 | 34029 ft | 465 kts | 268° |
| 2026-05-08 02:49 | 61.18462 | -154.49033 | 34027 ft | 465 kts | 268° |
| 2026-05-08 02:50 | 61.18281 | -154.62380 | 34024 ft | 466 kts | 268° |
| 2026-05-08 02:50 | 61.18085 | -154.75830 | 34025 ft | 466 kts | 268° |
| 2026-05-08 02:51 | 61.17877 | -154.89278 | 34023 ft | 466 kts | 268° |
| 2026-05-08 02:51 | 61.17655 | -155.02734 | 34013 ft | 467 kts | 268° |
| 2026-05-08 02:52 | 61.17421 | -155.16092 | 33997 ft | 467 kts | 268° |
| 2026-05-08 02:52 | 61.17172 | -155.29584 | 33982 ft | 467 kts | 268° |
| 2026-05-08 02:53 | 61.16911 | -155.42988 | 33974 ft | 467 kts | 268° |
| 2026-05-08 02:53 | 61.16633 | -155.56541 | 33970 ft | 468 kts | 267° |
| 2026-05-08 02:54 | 61.16346 | -155.69924 | 33968 ft | 468 kts | 267° |
| 2026-05-08 02:54 | 61.16043 | -155.83425 | 33982 ft | 468 kts | 267° |
| 2026-05-08 02:55 | 61.15563 | -156.03660 | 34001 ft | 469 kts | 267° |
| 2026-05-08 02:56 | 61.15226 | -156.17147 | 34014 ft | 469 kts | 267° |
| 2026-05-08 02:56 | 61.14876 | -156.30645 | 34032 ft | 470 kts | 267° |
| 2026-05-08 02:57 | 61.14511 | -156.44156 | 34028 ft | 470 kts | 267° |
| 2026-05-08 02:57 | 61.14135 | -156.57585 | 34029 ft | 470 kts | 267° |
| 2026-05-08 02:58 | 61.13743 | -156.71117 | 34028 ft | 470 kts | 267° |
| 2026-05-08 02:58 | 61.13338 | -156.84644 | 34028 ft | 471 kts | 267° |
| 2026-05-08 02:59 | 61.12919 | -156.98168 | 34028 ft | 471 kts | 267° |
| 2026-05-08 02:59 | 61.12488 | -157.11652 | 34029 ft | 471 kts | 267° |
| 2026-05-08 03:00 | 61.12041 | -157.25182 | 34029 ft | 471 kts | 267° |
| 2026-05-08 03:00 | 61.11581 | -157.38726 | 34027 ft | 471 kts | 267° |
| 2026-05-08 03:01 | 61.11107 | -157.52251 | 34025 ft | 471 kts | 267° |
| 2026-05-08 03:01 | 61.10620 | -157.65761 | 34026 ft | 471 kts | 267° |
| 2026-05-08 03:02 | 61.10119 | -157.79284 | 34025 ft | 471 kts | 267° |
| 2026-05-08 03:02 | 61.09606 | -157.92789 | 34019 ft | 471 kts | 267° |
| 2026-05-08 03:03 | 61.09081 | -158.06225 | 34023 ft | 471 kts | 267° |
| 2026-05-08 03:03 | 61.08540 | -158.19738 | 34023 ft | 472 kts | 267° |
| 2026-05-08 03:04 | 61.07985 | -158.33272 | 34023 ft | 472 kts | 267° |
| 2026-05-08 03:04 | 61.07415 | -158.46768 | 34024 ft | 472 kts | 267° |
| 2026-05-08 03:05 | 61.06836 | -158.60208 | 34024 ft | 472 kts | 267° |
| 2026-05-08 03:05 | 61.06241 | -158.73709 | 34023 ft | 472 kts | 267° |
| 2026-05-08 03:06 | 61.05629 | -158.87227 | 34010 ft | 472 kts | 267° |
| 2026-05-08 03:06 | 61.05008 | -159.00711 | 34008 ft | 472 kts | 267° |
| 2026-05-08 03:07 | 61.04372 | -159.14207 | 34007 ft | 472 kts | 267° |
| 2026-05-08 03:07 | 61.03723 | -159.27688 | 34010 ft | 472 kts | 267° |
| 2026-05-08 03:08 | 61.03064 | -159.41083 | 34010 ft | 472 kts | 267° |
| 2026-05-08 03:08 | 61.02386 | -159.54565 | 34017 ft | 472 kts | 267° |
| 2026-05-08 03:09 | 61.01697 | -159.68043 | 34016 ft | 472 kts | 267° |
| 2026-05-08 03:09 | 61.00993 | -159.81507 | 34020 ft | 473 kts | 267° |
| 2026-05-08 03:10 | 61.00277 | -159.94980 | 34207 ft | 471 kts | 267° |
| 2026-05-08 03:10 | 60.99919 | -160.01610 | 34543 ft | 469 kts | 267° |
| 2026-05-08 03:10 | 60.99499 | -160.08324 | 34821 ft | 470 kts | 265° |
| 2026-05-08 03:10 | 60.99004 | -160.14991 | 35046 ft | 471 kts | 264° |
| 2026-05-08 03:11 | 60.98482 | -160.21577 | 35265 ft | 471 kts | 264° |
| 2026-05-08 03:11 | 60.97947 | -160.28233 | 35477 ft | 472 kts | 264° |
| 2026-05-08 03:11 | 60.97414 | -160.34920 | 35688 ft | 472 kts | 264° |
| 2026-05-08 03:11 | 60.96888 | -160.41593 | 35894 ft | 472 kts | 264° |
| 2026-05-08 03:12 | 60.96367 | -160.48275 | 36019 ft | 475 kts | 264° |
| 2026-05-08 03:12 | 60.95315 | -160.61811 | 36036 ft | 481 kts | 264° |
| 2026-05-08 03:13 | 60.94245 | -160.75401 | 36037 ft | 480 kts | 264° |
| 2026-05-08 03:13 | 60.93164 | -160.88936 | 36037 ft | 480 kts | 264° |
| 2026-05-08 03:14 | 60.92075 | -161.02399 | 36036 ft | 480 kts | 264° |
| 2026-05-08 03:14 | 60.90965 | -161.15941 | 36034 ft | 480 kts | 264° |
| 2026-05-08 03:15 | 60.89841 | -161.29475 | 36040 ft | 481 kts | 264° |
| 2026-05-08 03:15 | 60.88699 | -161.43048 | 36047 ft | 481 kts | 264° |
| 2026-05-08 03:16 | 60.87553 | -161.56511 | 36057 ft | 481 kts | 264° |
| 2026-05-08 03:16 | 60.86385 | -161.70051 | 36063 ft | 482 kts | 264° |
| 2026-05-08 03:17 | 60.85203 | -161.83596 | 36064 ft | 482 kts | 263° |
| 2026-05-08 03:17 | 60.84007 | -161.97131 | 36059 ft | 482 kts | 263° |
| 2026-05-08 03:18 | 60.82802 | -162.10604 | 36060 ft | 482 kts | 263° |
| 2026-05-08 03:18 | 60.81784 | -162.21865 | 36069 ft | 483 kts | 263° |
| 2026-05-08 03:19 | 60.80548 | -162.35387 | 36061 ft | 483 kts | 263° |
| 2026-05-08 03:19 | 60.79295 | -162.48933 | 36076 ft | 483 kts | 263° |
| 2026-05-08 03:20 | 60.78035 | -162.62402 | 36078 ft | 484 kts | 263° |
| 2026-05-08 03:20 | 60.76755 | -162.75930 | 36078 ft | 484 kts | 263° |
| 2026-05-08 03:21 | 60.75459 | -162.89471 | 36082 ft | 485 kts | 262° |
| 2026-05-08 03:21 | 60.74149 | -163.02998 | 36082 ft | 485 kts | 262° |
| 2026-05-08 03:22 | 60.72825 | -163.16532 | 36087 ft | 485 kts | 262° |
| 2026-05-08 03:22 | 60.71493 | -163.29983 | 36090 ft | 486 kts | 262° |
| 2026-05-08 03:23 | 60.70140 | -163.43510 | 36092 ft | 486 kts | 262° |
| 2026-05-08 03:23 | 60.68770 | -163.57047 | 36095 ft | 487 kts | 262° |
| 2026-05-08 03:24 | 60.67386 | -163.70587 | 36100 ft | 487 kts | 262° |
| 2026-05-08 03:24 | 60.65987 | -163.84125 | 36101 ft | 488 kts | 261° |
| 2026-05-08 03:25 | 60.64572 | -163.97665 | 36103 ft | 488 kts | 261° |
| 2026-05-08 03:25 | 60.63146 | -164.11175 | 36106 ft | 488 kts | 261° |
| 2026-05-08 03:26 | 60.61712 | -164.24627 | 36114 ft | 489 kts | 261° |
| 2026-05-08 03:26 | 60.60253 | -164.38165 | 36112 ft | 489 kts | 261° |
| 2026-05-08 03:27 | 60.58780 | -164.51700 | 36119 ft | 489 kts | 261° |
| 2026-05-08 03:27 | 60.57300 | -164.65157 | 36126 ft | 490 kts | 260° |
| 2026-05-08 03:28 | 60.55799 | -164.78670 | 36139 ft | 490 kts | 260° |
| 2026-05-08 03:28 | 60.54282 | -164.92192 | 36146 ft | 490 kts | 260° |
| 2026-05-08 03:29 | 60.52753 | -165.05689 | 36132 ft | 491 kts | 260° |
| 2026-05-08 03:29 | 60.51205 | -165.19211 | 36143 ft | 491 kts | 259° |
| 2026-05-08 03:30 | 60.48869 | -165.39380 | 36133 ft | 491 kts | 259° |
| 2026-05-08 03:31 | 60.45694 | -165.66338 | 36121 ft | 492 kts | 259° |
| 2026-05-08 03:32 | 60.43283 | -165.86475 | 36133 ft | 492 kts | 259° |
| 2026-05-08 03:32 | 60.41652 | -165.99931 | 36138 ft | 492 kts | 259° |
| 2026-05-08 03:33 | 60.40004 | -166.13409 | 36147 ft | 492 kts | 258° |
| 2026-05-08 03:33 | 60.38344 | -166.26861 | 36145 ft | 492 kts | 258° |
| 2026-05-08 03:34 | 60.36673 | -166.40281 | 36145 ft | 493 kts | 258° |
| 2026-05-08 03:34 | 60.34983 | -166.53718 | 36143 ft | 493 kts | 258° |
| 2026-05-08 03:35 | 60.33292 | -166.67052 | 36141 ft | 493 kts | 258° |
| 2026-05-08 03:35 | 60.31573 | -166.80481 | 36139 ft | 493 kts | 258° |
| 2026-05-08 03:36 | 60.29724 | -166.94802 | 36136 ft | 493 kts | 257° |
| 2026-05-08 03:36 | 60.27978 | -167.08193 | 36138 ft | 493 kts | 257° |
| 2026-05-08 03:37 | 60.26219 | -167.21567 | 36143 ft | 493 kts | 257° |
| 2026-05-08 03:37 | 60.24458 | -167.34848 | 36140 ft | 493 kts | 257° |
| 2026-05-08 03:38 | 60.22673 | -167.48188 | 36144 ft | 493 kts | 257° |
| 2026-05-08 03:38 | 60.20875 | -167.61515 | 36140 ft | 494 kts | 257° |
| 2026-05-08 03:39 | 60.19061 | -167.74847 | 36143 ft | 494 kts | 257° |
| 2026-05-08 03:39 | 60.17232 | -167.88175 | 36150 ft | 494 kts | 257° |
| 2026-05-08 03:40 | 60.15405 | -168.01375 | 36148 ft | 494 kts | 256° |
| 2026-05-08 03:40 | 60.13555 | -168.14635 | 36150 ft | 494 kts | 256° |
| 2026-05-08 03:41 | 60.11685 | -168.27923 | 36149 ft | 494 kts | 256° |
| 2026-05-08 03:41 | 60.09816 | -168.41102 | 36149 ft | 494 kts | 256° |
| 2026-05-08 03:42 | 60.07921 | -168.54353 | 36148 ft | 494 kts | 256° |
| 2026-05-08 03:42 | 60.06014 | -168.67574 | 36148 ft | 494 kts | 256° |
| 2026-05-08 03:43 | 60.04089 | -168.80824 | 36148 ft | 494 kts | 256° |
| 2026-05-08 03:43 | 60.02167 | -168.93936 | 36153 ft | 494 kts | 256° |
| 2026-05-08 03:44 | 60.00219 | -169.07129 | 36151 ft | 494 kts | 255° |
| 2026-05-08 03:44 | 59.98259 | -169.20299 | 36150 ft | 494 kts | 255° |
| 2026-05-08 03:45 | 59.96617 | -169.31254 | 36152 ft | 494 kts | 255° |
| 2026-05-08 03:45 | 59.94308 | -169.46530 | 36151 ft | 494 kts | 255° |
| 2026-05-08 03:46 | 59.92311 | -169.59638 | 36151 ft | 494 kts | 255° |
| 2026-05-08 03:46 | 59.90638 | -169.70540 | 36158 ft | 494 kts | 255° |
| 2026-05-08 03:47 | 59.88614 | -169.83644 | 36149 ft | 494 kts | 254° |
| 2026-05-08 03:47 | 59.86576 | -169.96733 | 36150 ft | 494 kts | 254° |
| 2026-05-08 03:48 | 59.84527 | -170.09789 | 36143 ft | 494 kts | 254° |
| 2026-05-08 03:48 | 59.82476 | -170.22771 | 36147 ft | 494 kts | 254° |
| 2026-05-08 03:49 | 59.80400 | -170.35803 | 36151 ft | 494 kts | 254° |
| 2026-05-08 03:49 | 59.78310 | -170.48832 | 36149 ft | 494 kts | 253° |
| 2026-05-08 03:50 | 59.76208 | -170.61837 | 36150 ft | 494 kts | 253° |
| 2026-05-08 03:50 | 59.74108 | -170.74735 | 36151 ft | 494 kts | 253° |
| 2026-05-08 03:51 | 59.71977 | -170.87730 | 36152 ft | 495 kts | 253° |
| 2026-05-08 03:51 | 59.69837 | -171.00681 | 36151 ft | 495 kts | 253° |
| 2026-05-08 03:52 | 59.67694 | -171.13562 | 36155 ft | 495 kts | 253° |
| 2026-05-08 03:52 | 59.65522 | -171.26519 | 36149 ft | 495 kts | 253° |
| 2026-05-08 03:53 | 59.63346 | -171.39413 | 36147 ft | 495 kts | 253° |
| 2026-05-08 03:53 | 59.61151 | -171.52326 | 36148 ft | 495 kts | 252° |
| 2026-05-08 03:54 | 59.58944 | -171.65221 | 36147 ft | 495 kts | 252° |
| 2026-05-08 03:54 | 59.56722 | -171.78109 | 36148 ft | 495 kts | 252° |
| 2026-05-08 03:55 | 59.54503 | -171.90891 | 36150 ft | 495 kts | 252° |
| 2026-05-08 03:55 | 59.52059 | -172.03598 | 36147 ft | 496 kts | 249° |
| 2026-05-08 03:56 | 59.49410 | -172.16140 | 36146 ft | 496 kts | 248° |
| 2026-05-08 03:56 | 59.46764 | -172.28713 | 36147 ft | 496 kts | 249° |
| 2026-05-08 03:57 | 59.44160 | -172.41228 | 36145 ft | 497 kts | 249° |
| 2026-05-08 03:57 | 59.41545 | -172.53802 | 36144 ft | 497 kts | 249° |
| 2026-05-08 03:58 | 59.38922 | -172.66345 | 36142 ft | 497 kts | 249° |
| 2026-05-08 03:58 | 59.36281 | -172.78883 | 36142 ft | 497 kts | 248° |
| 2026-05-08 03:59 | 59.33641 | -172.91336 | 36143 ft | 497 kts | 248° |
| 2026-05-08 03:59 | 59.30976 | -173.03833 | 36143 ft | 497 kts | 248° |
| 2026-05-08 04:00 | 59.28297 | -173.16316 | 36143 ft | 497 kts | 248° |
| 2026-05-08 04:00 | 59.25598 | -173.28821 | 36141 ft | 498 kts | 248° |
| 2026-05-08 04:01 | 59.22910 | -173.41198 | 36139 ft | 498 kts | 248° |
| 2026-05-08 04:01 | 59.20189 | -173.53650 | 36151 ft | 498 kts | 248° |
| 2026-05-08 04:02 | 59.17457 | -173.66083 | 36134 ft | 498 kts | 248° |
| 2026-05-08 04:02 | 59.14715 | -173.78485 | 36141 ft | 498 kts | 247° |
| 2026-05-08 04:03 | 59.11956 | -173.90890 | 36141 ft | 499 kts | 247° |
| 2026-05-08 04:03 | 59.07796 | -174.09463 | 36137 ft | 499 kts | 247° |
| 2026-05-08 04:04 | 59.05024 | -174.21750 | 36138 ft | 499 kts | 247° |
| 2026-05-08 04:04 | 59.02298 | -174.34166 | 36134 ft | 499 kts | 248° |
| 2026-05-08 04:05 | 58.99613 | -174.46617 | 36129 ft | 500 kts | 248° |
| 2026-05-08 04:05 | 58.96905 | -174.59060 | 36126 ft | 500 kts | 248° |
| 2026-05-08 04:06 | 58.94179 | -174.71449 | 36123 ft | 501 kts | 247° |
| 2026-05-08 04:06 | 58.91445 | -174.83774 | 36129 ft | 501 kts | 247° |
| 2026-05-08 04:07 | 58.88679 | -174.96174 | 36140 ft | 501 kts | 247° |
| 2026-05-08 04:07 | 58.85920 | -175.08474 | 36122 ft | 501 kts | 247° |
| 2026-05-08 04:08 | 58.83134 | -175.20825 | 36136 ft | 501 kts | 247° |
| 2026-05-08 04:08 | 58.80334 | -175.33158 | 36120 ft | 502 kts | 246° |
| 2026-05-08 04:09 | 58.77517 | -175.45498 | 36120 ft | 502 kts | 246° |
| 2026-05-08 04:09 | 58.74687 | -175.57824 | 36129 ft | 502 kts | 246° |
| 2026-05-08 04:10 | 58.71854 | -175.70090 | 36117 ft | 502 kts | 246° |
| 2026-05-08 04:10 | 58.69027 | -175.82262 | 36115 ft | 501 kts | 246° |
| 2026-05-08 04:11 | 58.66172 | -175.94485 | 36127 ft | 501 kts | 245° |
| 2026-05-08 04:11 | 58.63306 | -176.06686 | 36114 ft | 501 kts | 245° |
| 2026-05-08 04:12 | 58.60429 | -176.18864 | 36113 ft | 501 kts | 245° |
| 2026-05-08 04:12 | 58.57540 | -176.31025 | 36111 ft | 500 kts | 245° |
| 2026-05-08 04:13 | 58.54644 | -176.43148 | 36111 ft | 500 kts | 245° |
| 2026-05-08 04:13 | 58.51732 | -176.55265 | 36107 ft | 500 kts | 244° |
| 2026-05-08 04:14 | 58.48830 | -176.67279 | 36110 ft | 500 kts | 244° |
| 2026-05-08 04:14 | 58.45898 | -176.79345 | 36107 ft | 500 kts | 244° |
| 2026-05-08 04:15 | 58.42957 | -176.91382 | 36102 ft | 500 kts | 244° |
| 2026-05-08 04:15 | 58.40004 | -177.03399 | 36102 ft | 500 kts | 243° |
| 2026-05-08 04:16 | 58.37056 | -177.15341 | 36105 ft | 500 kts | 243° |
| 2026-05-08 04:16 | 58.34080 | -177.27328 | 36099 ft | 500 kts | 243° |
| 2026-05-08 04:17 | 58.31091 | -177.39305 | 36099 ft | 500 kts | 243° |
| 2026-05-08 04:17 | 58.28087 | -177.51272 | 36092 ft | 500 kts | 243° |
| 2026-05-08 04:18 | 58.25097 | -177.63117 | 36089 ft | 500 kts | 243° |
| 2026-05-08 04:18 | 58.22077 | -177.75017 | 36088 ft | 499 kts | 242° |
| 2026-05-08 04:19 | 58.19047 | -177.86893 | 36091 ft | 499 kts | 242° |
| 2026-05-08 04:19 | 58.16010 | -177.98734 | 36085 ft | 499 kts | 242° |
| 2026-05-08 04:20 | 58.12967 | -178.10532 | 36079 ft | 498 kts | 242° |
| 2026-05-08 04:20 | 58.09938 | -178.22225 | 36082 ft | 498 kts | 242° |
| 2026-05-08 04:21 | 58.06883 | -178.33957 | 36074 ft | 497 kts | 242° |
| 2026-05-08 04:21 | 58.03819 | -178.45655 | 36077 ft | 497 kts | 241° |
| 2026-05-08 04:22 | 58.00740 | -178.57343 | 36074 ft | 497 kts | 241° |
| 2026-05-08 04:22 | 57.97651 | -178.69004 | 36069 ft | 496 kts | 241° |
| 2026-05-08 04:23 | 57.94575 | -178.80571 | 36068 ft | 496 kts | 241° |
| 2026-05-08 04:23 | 57.91477 | -178.92162 | 36063 ft | 496 kts | 241° |
| 2026-05-08 04:24 | 57.88364 | -179.03745 | 36062 ft | 495 kts | 240° |
| 2026-05-08 04:24 | 57.85256 | -179.15249 | 36058 ft | 495 kts | 240° |
| 2026-05-08 04:25 | 57.82121 | -179.26796 | 36054 ft | 495 kts | 240° |
| 2026-05-08 04:25 | 57.78984 | -179.38289 | 36054 ft | 495 kts | 240° |
| 2026-05-08 04:26 | 57.75850 | -179.49719 | 36051 ft | 495 kts | 240° |
| 2026-05-08 04:26 | 57.72693 | -179.61171 | 36047 ft | 495 kts | 240° |
| 2026-05-08 04:27 | 57.69517 | -179.72636 | 36048 ft | 495 kts | 239° |
| 2026-05-08 04:27 | 57.66356 | -179.83991 | 36042 ft | 495 kts | 239° |
| 2026-05-08 04:28 | 57.63155 | -179.95433 | 36036 ft | 495 kts | 239° |
| 2026-05-08 04:28 | 57.59950 | 179.93183 | 36032 ft | 495 kts | 239° |
| 2026-05-08 04:29 | 57.56762 | 179.81901 | 36036 ft | 495 kts | 239° |
| 2026-05-08 04:29 | 57.53545 | 179.70566 | 36034 ft | 495 kts | 239° |
| 2026-05-08 04:30 | 57.50315 | 179.59243 | 36025 ft | 495 kts | 239° |
| 2026-05-08 04:30 | 57.47078 | 179.47957 | 36022 ft | 495 kts | 239° |
| 2026-05-08 04:31 | 57.43823 | 179.36662 | 36023 ft | 495 kts | 239° |
| 2026-05-08 04:31 | 57.40560 | 179.25393 | 36020 ft | 495 kts | 238° |
| 2026-05-08 04:32 | 57.37312 | 179.14234 | 36013 ft | 495 kts | 238° |
| 2026-05-08 04:32 | 57.34582 | 179.04891 | 36013 ft | 495 kts | 238° |
| 2026-05-08 04:33 | 57.31294 | 178.93691 | 36012 ft | 495 kts | 238° |
| 2026-05-08 04:33 | 57.27995 | 178.82508 | 36009 ft | 495 kts | 238° |
| 2026-05-08 04:34 | 57.24682 | 178.71327 | 36009 ft | 495 kts | 237° |
| 2026-05-08 04:34 | 57.21365 | 178.60190 | 36001 ft | 495 kts | 237° |
| 2026-05-08 04:35 | 57.18034 | 178.49065 | 36004 ft | 495 kts | 237° |
| 2026-05-08 04:35 | 57.14715 | 178.38029 | 35996 ft | 495 kts | 237° |
| 2026-05-08 04:36 | 57.11358 | 178.26919 | 35992 ft | 495 kts | 237° |
| 2026-05-08 04:36 | 57.07991 | 178.15826 | 35993 ft | 495 kts | 237° |
| 2026-05-08 04:37 | 57.04641 | 178.04839 | 35985 ft | 495 kts | 236° |
| 2026-05-08 04:37 | 57.01264 | 177.93813 | 35984 ft | 495 kts | 236° |
| 2026-05-08 04:38 | 56.97873 | 177.82794 | 35983 ft | 495 kts | 236° |
| 2026-05-08 04:38 | 56.94468 | 177.71784 | 35980 ft | 495 kts | 236° |
| 2026-05-08 04:39 | 56.91081 | 177.60882 | 35976 ft | 495 kts | 236° |
| 2026-05-08 04:39 | 56.87660 | 177.49923 | 35974 ft | 495 kts | 235° |
| 2026-05-08 04:40 | 56.84240 | 177.39018 | 35977 ft | 495 kts | 235° |
| 2026-05-08 04:40 | 56.80795 | 177.28085 | 35969 ft | 495 kts | 235° |
| 2026-05-08 04:41 | 56.77376 | 177.17284 | 35963 ft | 495 kts | 234° |
| 2026-05-08 04:41 | 56.73920 | 177.06414 | 35964 ft | 495 kts | 234° |
| 2026-05-08 04:42 | 56.70448 | 176.95548 | 35960 ft | 495 kts | 234° |
| 2026-05-08 04:42 | 56.66977 | 176.84725 | 35961 ft | 495 kts | 234° |
| 2026-05-08 04:43 | 56.63514 | 176.73982 | 35955 ft | 495 kts | 234° |
| 2026-05-08 04:43 | 56.60021 | 176.63193 | 35949 ft | 495 kts | 234° |
| 2026-05-08 04:44 | 56.56516 | 176.52417 | 35947 ft | 495 kts | 234° |
| 2026-05-08 04:44 | 56.53001 | 176.41660 | 35946 ft | 495 kts | 233° |
| 2026-05-08 04:45 | 56.49476 | 176.30918 | 35945 ft | 495 kts | 233° |
| 2026-05-08 04:45 | 56.45966 | 176.20269 | 35942 ft | 495 kts | 233° |
| 2026-05-08 04:46 | 56.42419 | 176.09558 | 35932 ft | 495 kts | 233° |
| 2026-05-08 04:46 | 56.38868 | 175.98885 | 35935 ft | 495 kts | 233° |
| 2026-05-08 04:47 | 56.35337 | 175.88317 | 35939 ft | 495 kts | 233° |
| 2026-05-08 04:47 | 56.31775 | 175.77700 | 35933 ft | 495 kts | 233° |
| 2026-05-08 04:48 | 56.28198 | 175.67086 | 35928 ft | 494 kts | 233° |
| 2026-05-08 04:48 | 56.24615 | 175.56504 | 35930 ft | 495 kts | 233° |
| 2026-05-08 04:49 | 56.21035 | 175.45990 | 35945 ft | 497 kts | 234° |
| 2026-05-08 04:49 | 56.17396 | 175.35346 | 35921 ft | 501 kts | 234° |
| 2026-05-08 04:50 | 56.13738 | 175.24673 | 35919 ft | 501 kts | 234° |
| 2026-05-08 04:50 | 56.10074 | 175.14031 | 35923 ft | 501 kts | 234° |
| 2026-05-08 04:51 | 56.06418 | 175.03464 | 35922 ft | 501 kts | 234° |
| 2026-05-08 04:51 | 56.02729 | 174.92849 | 35919 ft | 501 kts | 234° |
| 2026-05-08 04:52 | 55.99056 | 174.82329 | 35916 ft | 501 kts | 234° |
| 2026-05-08 04:52 | 55.95341 | 174.71734 | 35916 ft | 501 kts | 234° |
| 2026-05-08 04:53 | 55.91654 | 174.61263 | 35916 ft | 501 kts | 234° |
| 2026-05-08 04:53 | 55.87933 | 174.50737 | 35914 ft | 501 kts | 234° |
| 2026-05-08 04:54 | 55.84204 | 174.40241 | 35913 ft | 501 kts | 234° |
| 2026-05-08 04:54 | 55.80490 | 174.29831 | 35912 ft | 501 kts | 234° |
| 2026-05-08 04:55 | 55.76738 | 174.19361 | 35910 ft | 501 kts | 234° |
| 2026-05-08 04:55 | 55.72992 | 174.08951 | 35906 ft | 500 kts | 234° |
| 2026-05-08 04:56 | 55.69230 | 173.98540 | 35909 ft | 500 kts | 234° |
| 2026-05-08 04:56 | 55.65492 | 173.88235 | 35908 ft | 500 kts | 234° |
| 2026-05-08 04:57 | 55.61717 | 173.77874 | 35904 ft | 500 kts | 234° |
| 2026-05-08 04:57 | 55.57936 | 173.67542 | 35903 ft | 500 kts | 234° |
| 2026-05-08 04:58 | 55.54148 | 173.57235 | 35904 ft | 500 kts | 234° |
| 2026-05-08 04:58 | 55.50370 | 173.46997 | 35903 ft | 500 kts | 234° |
| 2026-05-08 04:59 | 55.46566 | 173.36734 | 35897 ft | 500 kts | 234° |
| 2026-05-08 04:59 | 55.42753 | 173.26489 | 35897 ft | 500 kts | 234° |
| 2026-05-08 05:00 | 55.38931 | 173.16263 | 35898 ft | 499 kts | 234° |
| 2026-05-08 05:00 | 55.35096 | 173.06042 | 35901 ft | 499 kts | 234° |
| 2026-05-08 05:01 | 55.31263 | 172.95870 | 35896 ft | 499 kts | 234° |
| 2026-05-08 05:01 | 55.27444 | 172.85774 | 35899 ft | 499 kts | 234° |
| 2026-05-08 05:02 | 55.23585 | 172.75620 | 35901 ft | 499 kts | 234° |
| 2026-05-08 05:02 | 55.19754 | 172.65577 | 35899 ft | 499 kts | 234° |
| 2026-05-08 05:03 | 55.15869 | 172.55435 | 35896 ft | 498 kts | 234° |
| 2026-05-08 05:03 | 55.12023 | 172.45438 | 35894 ft | 498 kts | 234° |
| 2026-05-08 05:04 | 55.08136 | 172.35371 | 35890 ft | 498 kts | 234° |
| 2026-05-08 05:04 | 55.04257 | 172.25368 | 35891 ft | 498 kts | 234° |
| 2026-05-08 05:05 | 55.00389 | 172.15433 | 35889 ft | 497 kts | 234° |
| 2026-05-08 05:05 | 54.96498 | 172.05480 | 35893 ft | 497 kts | 234° |
| 2026-05-08 05:06 | 54.94551 | 172.00513 | 36115 ft | 495 kts | 234° |
| 2026-05-08 05:06 | 54.92614 | 171.95598 | 36484 ft | 491 kts | 233° |
| 2026-05-08 05:06 | 54.90561 | 171.90855 | 36789 ft | 489 kts | 230° |
| 2026-05-08 05:06 | 54.88397 | 171.86307 | 37033 ft | 488 kts | 228° |
| 2026-05-08 05:07 | 54.86196 | 171.81844 | 37254 ft | 487 kts | 228° |
| 2026-05-08 05:07 | 54.83980 | 171.77367 | 37461 ft | 487 kts | 228° |
| 2026-05-08 05:07 | 54.81781 | 171.72883 | 37665 ft | 487 kts | 229° |
| 2026-05-08 05:07 | 54.79602 | 171.68385 | 37842 ft | 487 kts | 229° |
| 2026-05-08 05:08 | 54.75267 | 171.59348 | 37881 ft | 494 kts | 229° |
| 2026-05-08 05:08 | 54.70881 | 171.50169 | 37882 ft | 493 kts | 229° |
| 2026-05-08 05:09 | 54.66500 | 171.41035 | 37871 ft | 493 kts | 229° |
| 2026-05-08 05:09 | 54.62137 | 171.31983 | 37872 ft | 492 kts | 229° |
| 2026-05-08 05:10 | 54.55550 | 171.18385 | 37873 ft | 491 kts | 229° |
| 2026-05-08 05:11 | 54.51158 | 171.09362 | 37867 ft | 491 kts | 229° |
| 2026-05-08 05:11 | 54.46783 | 171.00405 | 37865 ft | 490 kts | 229° |
| 2026-05-08 05:12 | 54.42383 | 170.91430 | 37868 ft | 490 kts | 229° |
| 2026-05-08 05:12 | 54.37964 | 170.82450 | 37861 ft | 490 kts | 229° |
| 2026-05-08 05:13 | 54.33578 | 170.73569 | 37862 ft | 490 kts | 229° |
| 2026-05-08 05:13 | 54.29162 | 170.64660 | 37860 ft | 490 kts | 229° |
| 2026-05-08 05:14 | 54.24743 | 170.55775 | 37860 ft | 489 kts | 230° |
| 2026-05-08 05:14 | 54.20352 | 170.46980 | 37861 ft | 489 kts | 230° |
| 2026-05-08 05:15 | 54.15928 | 170.38151 | 37856 ft | 489 kts | 230° |
| 2026-05-08 05:15 | 54.11493 | 170.29330 | 37854 ft | 489 kts | 230° |
| 2026-05-08 05:16 | 54.07048 | 170.20523 | 37849 ft | 489 kts | 230° |
| 2026-05-08 05:16 | 54.02629 | 170.11797 | 37848 ft | 489 kts | 230° |
| 2026-05-08 05:17 | 53.98175 | 170.03035 | 37850 ft | 489 kts | 230° |
| 2026-05-08 05:17 | 53.93715 | 169.94289 | 37845 ft | 489 kts | 230° |
| 2026-05-08 05:18 | 53.89258 | 169.85583 | 37843 ft | 489 kts | 230° |
| 2026-05-08 05:18 | 53.84791 | 169.76887 | 37847 ft | 488 kts | 230° |
| 2026-05-08 05:19 | 53.80351 | 169.68275 | 37846 ft | 488 kts | 230° |
| 2026-05-08 05:19 | 53.75878 | 169.59630 | 37839 ft | 488 kts | 230° |
| 2026-05-08 05:20 | 53.72146 | 169.52441 | 37739 ft | 487 kts | 230° |
| 2026-05-08 05:20 | 53.66983 | 169.42537 | 37833 ft | 481 kts | 230° |
| 2026-05-08 05:21 | 53.63375 | 169.35344 | 37833 ft | 478 kts | 236° |
| 2026-05-08 05:21 | 53.59967 | 169.25845 | 37829 ft | 476 kts | 242° |
| 2026-05-08 05:22 | 53.56817 | 169.16031 | 37834 ft | 476 kts | 243° |
| 2026-05-08 05:22 | 53.53697 | 169.06199 | 37831 ft | 475 kts | 243° |
| 2026-05-08 05:23 | 53.50559 | 168.96407 | 37825 ft | 475 kts | 243° |
| 2026-05-08 05:23 | 53.47424 | 168.86709 | 37830 ft | 474 kts | 243° |
| 2026-05-08 05:24 | 53.44262 | 168.76982 | 37831 ft | 474 kts | 243° |
| 2026-05-08 05:24 | 53.41093 | 168.67273 | 37831 ft | 474 kts | 243° |
| 2026-05-08 05:25 | 53.37943 | 168.57655 | 37827 ft | 473 kts | 243° |
| 2026-05-08 05:25 | 53.34767 | 168.47999 | 37825 ft | 473 kts | 243° |
| 2026-05-08 05:26 | 53.31585 | 168.38358 | 37818 ft | 472 kts | 243° |
| 2026-05-08 05:26 | 53.28404 | 168.28754 | 37822 ft | 472 kts | 243° |
| 2026-05-08 05:27 | 53.25201 | 168.19166 | 37825 ft | 471 kts | 243° |
| 2026-05-08 05:27 | 53.21999 | 168.09624 | 37819 ft | 471 kts | 243° |
| 2026-05-08 05:28 | 53.18814 | 168.00164 | 37820 ft | 470 kts | 243° |
| 2026-05-08 05:28 | 53.15607 | 167.90666 | 37817 ft | 469 kts | 243° |
| 2026-05-08 05:29 | 53.12390 | 167.81176 | 37819 ft | 469 kts | 243° |
| 2026-05-08 05:29 | 53.09176 | 167.71733 | 37831 ft | 469 kts | 243° |
| 2026-05-08 05:30 | 53.05954 | 167.62303 | 37822 ft | 468 kts | 243° |
| 2026-05-08 05:30 | 53.02746 | 167.52946 | 37825 ft | 468 kts | 243° |
| 2026-05-08 05:31 | 52.99513 | 167.43555 | 37823 ft | 467 kts | 242° |
| 2026-05-08 05:31 | 52.96278 | 167.34190 | 37821 ft | 467 kts | 242° |
| 2026-05-08 05:32 | 52.93039 | 167.24853 | 37824 ft | 466 kts | 242° |
| 2026-05-08 05:32 | 52.89816 | 167.15596 | 37821 ft | 466 kts | 242° |
| 2026-05-08 05:33 | 52.86574 | 167.06315 | 37829 ft | 465 kts | 242° |
| 2026-05-08 05:33 | 52.83325 | 166.97051 | 37828 ft | 465 kts | 242° |
| 2026-05-08 05:34 | 52.80071 | 166.87808 | 37823 ft | 464 kts | 242° |
| 2026-05-08 05:34 | 52.76835 | 166.78650 | 37827 ft | 464 kts | 242° |
| 2026-05-08 05:35 | 52.73577 | 166.69462 | 37825 ft | 463 kts | 242° |
| 2026-05-08 05:35 | 52.70317 | 166.60305 | 37824 ft | 462 kts | 242° |
| 2026-05-08 05:36 | 52.67048 | 166.51153 | 37824 ft | 462 kts | 242° |
| 2026-05-08 05:36 | 52.63782 | 166.42042 | 37826 ft | 461 kts | 242° |
| 2026-05-08 05:37 | 52.60513 | 166.32957 | 37828 ft | 461 kts | 242° |
| 2026-05-08 05:37 | 52.57262 | 166.23956 | 37825 ft | 460 kts | 242° |
| 2026-05-08 05:38 | 52.53987 | 166.14919 | 37829 ft | 460 kts | 242° |
| 2026-05-08 05:38 | 52.50701 | 166.05884 | 37830 ft | 459 kts | 242° |
| 2026-05-08 05:39 | 52.47420 | 165.96897 | 37827 ft | 459 kts | 242° |
| 2026-05-08 05:39 | 52.44137 | 165.87937 | 37830 ft | 458 kts | 242° |
| 2026-05-08 05:40 | 52.40866 | 165.79041 | 37828 ft | 458 kts | 242° |
| 2026-05-08 05:40 | 52.37578 | 165.70129 | 37826 ft | 457 kts | 242° |
| 2026-05-08 05:41 | 52.34281 | 165.61225 | 37829 ft | 457 kts | 242° |
| 2026-05-08 05:41 | 52.30997 | 165.52384 | 37823 ft | 456 kts | 242° |
| 2026-05-08 05:42 | 52.27693 | 165.43522 | 37825 ft | 456 kts | 242° |
| 2026-05-08 05:42 | 52.24387 | 165.34687 | 37825 ft | 455 kts | 242° |
| 2026-05-08 05:43 | 52.21079 | 165.25877 | 37825 ft | 455 kts | 242° |
| 2026-05-08 05:43 | 52.17764 | 165.17079 | 37828 ft | 454 kts | 242° |
| 2026-05-08 05:44 | 52.14457 | 165.08330 | 37831 ft | 454 kts | 242° |
| 2026-05-08 05:44 | 52.11160 | 164.99637 | 37830 ft | 453 kts | 242° |
| 2026-05-08 05:45 | 52.07839 | 164.90913 | 37831 ft | 453 kts | 242° |
| 2026-05-08 05:45 | 52.04513 | 164.82206 | 37831 ft | 452 kts | 242° |
| 2026-05-08 05:46 | 52.01212 | 164.73593 | 37832 ft | 452 kts | 242° |
| 2026-05-08 05:46 | 51.97886 | 164.64946 | 37827 ft | 451 kts | 242° |
| 2026-05-08 05:47 | 51.94555 | 164.56313 | 37838 ft | 451 kts | 242° |
| 2026-05-08 05:47 | 51.91219 | 164.47697 | 37839 ft | 450 kts | 242° |
| 2026-05-08 05:48 | 51.87902 | 164.39159 | 37833 ft | 449 kts | 242° |
| 2026-05-08 05:48 | 51.84574 | 164.30620 | 37832 ft | 448 kts | 242° |
| 2026-05-08 05:49 | 51.81231 | 164.22073 | 37833 ft | 448 kts | 241° |
| 2026-05-08 05:49 | 51.77900 | 164.13584 | 37833 ft | 447 kts | 241° |
| 2026-05-08 05:50 | 51.74586 | 164.05167 | 37834 ft | 446 kts | 241° |
| 2026-05-08 05:50 | 51.71245 | 163.96708 | 37834 ft | 446 kts | 241° |
| 2026-05-08 05:51 | 51.67910 | 163.88293 | 37834 ft | 445 kts | 241° |
| 2026-05-08 05:51 | 51.64593 | 163.79948 | 37831 ft | 445 kts | 241° |
| 2026-05-08 05:52 | 51.61245 | 163.71555 | 37833 ft | 444 kts | 241° |
| 2026-05-08 05:52 | 51.57900 | 163.63197 | 37835 ft | 444 kts | 241° |
| 2026-05-08 05:53 | 51.54553 | 163.54857 | 37834 ft | 443 kts | 241° |
| 2026-05-08 05:53 | 51.51226 | 163.46593 | 37837 ft | 443 kts | 241° |
| 2026-05-08 05:54 | 51.47877 | 163.38303 | 37839 ft | 443 kts | 241° |
| 2026-05-08 05:54 | 51.44524 | 163.30030 | 37833 ft | 442 kts | 241° |
| 2026-05-08 05:55 | 51.41159 | 163.21753 | 37834 ft | 442 kts | 241° |
| 2026-05-08 05:55 | 51.37800 | 163.13517 | 37834 ft | 441 kts | 241° |
| 2026-05-08 05:56 | 51.34465 | 163.05368 | 37839 ft | 440 kts | 241° |
| 2026-05-08 05:56 | 51.31109 | 162.97191 | 37839 ft | 439 kts | 241° |
| 2026-05-08 05:57 | 51.27750 | 162.89034 | 37837 ft | 438 kts | 241° |
| 2026-05-08 05:57 | 51.24392 | 162.80904 | 37838 ft | 437 kts | 241° |
| 2026-05-08 05:58 | 51.21056 | 162.72854 | 37838 ft | 436 kts | 241° |
| 2026-05-08 05:58 | 51.17698 | 162.64775 | 37840 ft | 435 kts | 241° |
| 2026-05-08 05:59 | 51.14370 | 162.56794 | 37838 ft | 434 kts | 241° |
| 2026-05-08 05:59 | 51.11025 | 162.48795 | 37842 ft | 433 kts | 241° |
| 2026-05-08 06:00 | 51.07677 | 162.40815 | 37842 ft | 432 kts | 241° |
| 2026-05-08 06:00 | 51.04336 | 162.32875 | 37840 ft | 431 kts | 241° |
| 2026-05-08 06:01 | 51.01019 | 162.25016 | 37837 ft | 430 kts | 241° |
| 2026-05-08 06:01 | 50.97682 | 162.17133 | 37853 ft | 429 kts | 241° |
| 2026-05-08 06:02 | 50.94348 | 162.09282 | 37830 ft | 429 kts | 241° |
| 2026-05-08 06:02 | 50.91009 | 162.01442 | 37848 ft | 428 kts | 241° |
| 2026-05-08 06:03 | 50.87671 | 161.93627 | 37844 ft | 427 kts | 241° |
| 2026-05-08 06:03 | 50.84339 | 161.85852 | 37842 ft | 426 kts | 241° |
| 2026-05-08 06:04 | 50.81010 | 161.78104 | 37844 ft | 425 kts | 241° |
| 2026-05-08 06:04 | 50.77681 | 161.70380 | 37846 ft | 425 kts | 241° |
| 2026-05-08 06:05 | 50.74360 | 161.62699 | 37842 ft | 424 kts | 241° |
| 2026-05-08 06:05 | 50.71027 | 161.55012 | 37846 ft | 423 kts | 242° |
| 2026-05-08 06:06 | 50.67720 | 161.47406 | 37851 ft | 422 kts | 242° |
| 2026-05-08 06:06 | 50.64393 | 161.39778 | 37849 ft | 422 kts | 242° |
| 2026-05-08 06:07 | 50.61620 | 161.33436 | 37853 ft | 421 kts | 242° |
| 2026-05-08 06:07 | 50.58293 | 161.25846 | 37852 ft | 421 kts | 242° |
| 2026-05-08 06:08 | 50.54979 | 161.18309 | 37854 ft | 420 kts | 242° |
| 2026-05-08 06:08 | 50.51654 | 161.10770 | 37856 ft | 419 kts | 242° |
| 2026-05-08 06:09 | 50.48325 | 161.03240 | 37857 ft | 418 kts | 242° |
| 2026-05-08 06:09 | 50.45004 | 160.95754 | 37859 ft | 417 kts | 242° |
| 2026-05-08 06:10 | 50.41682 | 160.88284 | 37856 ft | 416 kts | 242° |
| 2026-05-08 06:10 | 50.38392 | 160.80908 | 37859 ft | 415 kts | 242° |
| 2026-05-08 06:11 | 50.35084 | 160.73512 | 37859 ft | 414 kts | 242° |
| 2026-05-08 06:11 | 50.31773 | 160.66128 | 37865 ft | 413 kts | 242° |
| 2026-05-08 06:12 | 50.28460 | 160.58759 | 37864 ft | 412 kts | 242° |
| 2026-05-08 06:12 | 50.25176 | 160.51479 | 37864 ft | 411 kts | 242° |
| 2026-05-08 06:13 | 50.21872 | 160.44173 | 37870 ft | 411 kts | 242° |
| 2026-05-08 06:13 | 50.20219 | 160.40529 | 38065 ft | 410 kts | 242° |
| 2026-05-08 06:13 | 50.18570 | 160.36897 | 38308 ft | 409 kts | 241° |
| 2026-05-08 06:13 | 50.16918 | 160.33270 | 38444 ft | 411 kts | 241° |
| 2026-05-08 06:14 | 50.15258 | 160.29639 | 38585 ft | 412 kts | 241° |
| 2026-05-08 06:14 | 50.13591 | 160.26003 | 38733 ft | 412 kts | 241° |
| 2026-05-08 06:14 | 50.11923 | 160.22369 | 38884 ft | 412 kts | 241° |
| 2026-05-08 06:14 | 50.10258 | 160.18747 | 39035 ft | 412 kts | 241° |
| 2026-05-08 06:15 | 50.08608 | 160.15161 | 39169 ft | 412 kts | 241° |
| 2026-05-08 06:15 | 50.06940 | 160.11540 | 39300 ft | 412 kts | 240° |
| 2026-05-08 06:15 | 50.05266 | 160.07910 | 39435 ft | 412 kts | 240° |
| 2026-05-08 06:15 | 50.03587 | 160.04274 | 39576 ft | 412 kts | 240° |
| 2026-05-08 06:16 | 50.01912 | 160.00652 | 39685 ft | 412 kts | 240° |
| 2026-05-08 06:16 | 50.00253 | 159.97068 | 39806 ft | 413 kts | 240° |
| 2026-05-08 06:16 | 49.98574 | 159.93446 | 39869 ft | 414 kts | 240° |
| 2026-05-08 06:17 | 49.93473 | 159.82469 | 39875 ft | 418 kts | 240° |
| 2026-05-08 06:17 | 49.90060 | 159.75161 | 39882 ft | 417 kts | 240° |
| 2026-05-08 06:18 | 49.86678 | 159.67935 | 39880 ft | 416 kts | 240° |
| 2026-05-08 06:18 | 49.83274 | 159.60678 | 39884 ft | 415 kts | 240° |
| 2026-05-08 06:19 | 49.79878 | 159.53460 | 39882 ft | 414 kts | 240° |
| 2026-05-08 06:19 | 49.76483 | 159.46260 | 39883 ft | 414 kts | 240° |
| 2026-05-08 06:20 | 49.73083 | 159.39074 | 39880 ft | 413 kts | 240° |
| 2026-05-08 06:20 | 49.69685 | 159.31926 | 39885 ft | 412 kts | 240° |
| 2026-05-08 06:21 | 49.66248 | 159.24897 | 39884 ft | 412 kts | 239° |
| 2026-05-08 06:21 | 49.62772 | 159.17855 | 39888 ft | 411 kts | 239° |
| 2026-05-08 06:22 | 49.59314 | 159.10843 | 39881 ft | 410 kts | 239° |
| 2026-05-08 06:22 | 49.55866 | 159.03855 | 39893 ft | 409 kts | 239° |
| 2026-05-08 06:23 | 49.52446 | 158.96935 | 39887 ft | 408 kts | 239° |
| 2026-05-08 06:23 | 49.49005 | 158.89995 | 39889 ft | 407 kts | 239° |
| 2026-05-08 06:24 | 49.45567 | 158.83077 | 39886 ft | 405 kts | 239° |
| 2026-05-08 06:24 | 49.42159 | 158.76237 | 39893 ft | 404 kts | 239° |
| 2026-05-08 06:25 | 49.38736 | 158.69386 | 39892 ft | 403 kts | 239° |
| 2026-05-08 06:25 | 49.35322 | 158.62570 | 39893 ft | 402 kts | 239° |
| 2026-05-08 06:26 | 49.31908 | 158.55770 | 39898 ft | 401 kts | 239° |
| 2026-05-08 06:26 | 49.28501 | 158.49003 | 39895 ft | 401 kts | 239° |
| 2026-05-08 06:27 | 49.25114 | 158.42291 | 39896 ft | 400 kts | 239° |
| 2026-05-08 06:27 | 49.21704 | 158.35552 | 39896 ft | 400 kts | 239° |
| 2026-05-08 06:28 | 49.18295 | 158.28832 | 39902 ft | 399 kts | 239° |
| 2026-05-08 06:28 | 49.14885 | 158.22128 | 39897 ft | 399 kts | 239° |
| 2026-05-08 06:29 | 49.11503 | 158.15493 | 39911 ft | 398 kts | 239° |
| 2026-05-08 06:29 | 49.08092 | 158.08819 | 39907 ft | 397 kts | 239° |
| 2026-05-08 06:30 | 49.04688 | 158.02177 | 39904 ft | 397 kts | 239° |
| 2026-05-08 06:30 | 49.01311 | 157.95600 | 39906 ft | 396 kts | 239° |
| 2026-05-08 06:31 | 48.97910 | 157.88996 | 39905 ft | 395 kts | 239° |
| 2026-05-08 06:31 | 48.94510 | 157.82410 | 39910 ft | 395 kts | 239° |
| 2026-05-08 06:32 | 48.91109 | 157.75837 | 39903 ft | 394 kts | 239° |
| 2026-05-08 06:32 | 48.87736 | 157.69334 | 39911 ft | 394 kts | 239° |
| 2026-05-08 06:33 | 48.84343 | 157.62808 | 39912 ft | 393 kts | 239° |
| 2026-05-08 06:33 | 48.80952 | 157.56303 | 39911 ft | 393 kts | 239° |
| 2026-05-08 06:34 | 48.77557 | 157.49805 | 39912 ft | 392 kts | 239° |
| 2026-05-08 06:34 | 48.74183 | 157.43365 | 39915 ft | 392 kts | 239° |
| 2026-05-08 06:35 | 48.70786 | 157.36895 | 39914 ft | 391 kts | 239° |
| 2026-05-08 06:35 | 48.67392 | 157.30446 | 39914 ft | 391 kts | 239° |
| 2026-05-08 06:36 | 48.64017 | 157.24048 | 39916 ft | 391 kts | 238° |
| 2026-05-08 06:36 | 48.60623 | 157.17630 | 39914 ft | 390 kts | 238° |
| 2026-05-08 06:37 | 48.57225 | 157.11220 | 39918 ft | 390 kts | 238° |
| 2026-05-08 06:37 | 48.53828 | 157.04827 | 39917 ft | 390 kts | 238° |
| 2026-05-08 06:38 | 48.50450 | 156.98484 | 39922 ft | 389 kts | 238° |
| 2026-05-08 06:38 | 48.47048 | 156.92113 | 39921 ft | 389 kts | 238° |
| 2026-05-08 06:39 | 48.43650 | 156.85763 | 39916 ft | 389 kts | 238° |
| 2026-05-08 06:39 | 48.40279 | 156.79479 | 39917 ft | 388 kts | 238° |
| 2026-05-08 06:40 | 48.36877 | 156.73152 | 39921 ft | 388 kts | 238° |
| 2026-05-08 06:40 | 48.33477 | 156.66842 | 39922 ft | 388 kts | 238° |
| 2026-05-08 06:41 | 48.30070 | 156.60538 | 39923 ft | 388 kts | 238° |
| 2026-05-08 06:41 | 48.26670 | 156.54260 | 39921 ft | 387 kts | 238° |
| 2026-05-08 06:42 | 48.23288 | 156.48030 | 39920 ft | 387 kts | 237° |
| 2026-05-08 06:42 | 48.19880 | 156.41764 | 39914 ft | 387 kts | 237° |
| 2026-05-08 06:43 | 48.16470 | 156.35510 | 39932 ft | 387 kts | 237° |
| 2026-05-08 06:43 | 48.13059 | 156.29271 | 39927 ft | 386 kts | 237° |
| 2026-05-08 06:44 | 48.09673 | 156.23089 | 39926 ft | 386 kts | 237° |
| 2026-05-08 06:44 | 48.06260 | 156.16874 | 39924 ft | 386 kts | 237° |
| 2026-05-08 06:45 | 48.02849 | 156.10676 | 39920 ft | 385 kts | 237° |
| 2026-05-08 06:45 | 47.99440 | 156.04496 | 39924 ft | 385 kts | 237° |
| 2026-05-08 06:46 | 47.96051 | 155.98364 | 39925 ft | 385 kts | 237° |
| 2026-05-08 06:46 | 47.92632 | 155.92195 | 39921 ft | 385 kts | 237° |
| 2026-05-08 06:47 | 47.89215 | 155.86043 | 39919 ft | 385 kts | 236° |
| 2026-05-08 06:47 | 47.85793 | 155.79897 | 39922 ft | 384 kts | 236° |
| 2026-05-08 06:48 | 47.82392 | 155.73801 | 39922 ft | 384 kts | 236° |
| 2026-05-08 06:48 | 47.78967 | 155.67677 | 39925 ft | 384 kts | 236° |
| 2026-05-08 06:49 | 47.75542 | 155.61565 | 39924 ft | 384 kts | 236° |
| 2026-05-08 06:49 | 47.72133 | 155.55497 | 39922 ft | 384 kts | 236° |
| 2026-05-08 06:50 | 47.68701 | 155.49401 | 39924 ft | 384 kts | 236° |
| 2026-05-08 06:50 | 47.65263 | 155.43309 | 39923 ft | 384 kts | 236° |
| 2026-05-08 06:51 | 47.61843 | 155.37262 | 39923 ft | 384 kts | 236° |
| 2026-05-08 06:51 | 47.58400 | 155.31186 | 39920 ft | 384 kts | 236° |
| 2026-05-08 06:52 | 47.54955 | 155.25124 | 39932 ft | 384 kts | 236° |
| 2026-05-08 06:52 | 47.51530 | 155.19109 | 39918 ft | 384 kts | 236° |
| 2026-05-08 06:53 | 47.48083 | 155.13067 | 39928 ft | 384 kts | 236° |
| 2026-05-08 06:53 | 47.44624 | 155.07019 | 39925 ft | 384 kts | 236° |
| 2026-05-08 06:54 | 47.41186 | 155.01021 | 39925 ft | 384 kts | 235° |
| 2026-05-08 06:54 | 47.37728 | 154.95003 | 39925 ft | 384 kts | 235° |
| 2026-05-08 06:55 | 47.34269 | 154.88995 | 39924 ft | 384 kts | 235° |
| 2026-05-08 06:55 | 47.31391 | 154.84006 | 39924 ft | 384 kts | 235° |
| 2026-05-08 06:56 | 47.27925 | 154.78009 | 39924 ft | 384 kts | 235° |
| 2026-05-08 06:56 | 47.24475 | 154.72054 | 39922 ft | 384 kts | 235° |
| 2026-05-08 06:57 | 47.21006 | 154.66080 | 39922 ft | 384 kts | 235° |
| 2026-05-08 06:57 | 47.17531 | 154.60109 | 39921 ft | 383 kts | 235° |
| 2026-05-08 06:58 | 47.14059 | 154.54155 | 39921 ft | 383 kts | 234° |
| 2026-05-08 06:58 | 47.10581 | 154.48206 | 39919 ft | 383 kts | 234° |
| 2026-05-08 06:59 | 47.07103 | 154.42267 | 39919 ft | 383 kts | 234° |
| 2026-05-08 06:59 | 47.03618 | 154.36330 | 39915 ft | 383 kts | 234° |
| 2026-05-08 07:00 | 47.00150 | 154.30436 | 39920 ft | 383 kts | 234° |
| 2026-05-08 07:00 | 46.96661 | 154.24517 | 39915 ft | 383 kts | 234° |
| 2026-05-08 07:01 | 46.93172 | 154.18613 | 39911 ft | 383 kts | 234° |
| 2026-05-08 07:01 | 46.89698 | 154.12747 | 39915 ft | 383 kts | 234° |
| 2026-05-08 07:02 | 46.86203 | 154.06858 | 39918 ft | 383 kts | 234° |
| 2026-05-08 07:02 | 46.82700 | 154.00968 | 39912 ft | 383 kts | 234° |
| 2026-05-08 07:03 | 46.79216 | 153.95122 | 39908 ft | 383 kts | 233° |
| 2026-05-08 07:03 | 46.75703 | 153.89241 | 39913 ft | 383 kts | 233° |
| 2026-05-08 07:04 | 46.72192 | 153.83376 | 39910 ft | 384 kts | 233° |
| 2026-05-08 07:04 | 46.68698 | 153.77551 | 39911 ft | 384 kts | 233° |
| 2026-05-08 07:05 | 46.65170 | 153.71684 | 39906 ft | 384 kts | 233° |
| 2026-05-08 07:05 | 46.61642 | 153.65827 | 39906 ft | 385 kts | 233° |
| 2026-05-08 07:06 | 46.58108 | 153.59975 | 39904 ft | 385 kts | 233° |
| 2026-05-08 07:06 | 46.54585 | 153.54152 | 39904 ft | 385 kts | 233° |
| 2026-05-08 07:07 | 46.51044 | 153.48312 | 39903 ft | 385 kts | 233° |
| 2026-05-08 07:07 | 46.47489 | 153.42461 | 39900 ft | 386 kts | 233° |
| 2026-05-08 07:08 | 46.43930 | 153.36617 | 39898 ft | 386 kts | 233° |
| 2026-05-08 07:08 | 46.40389 | 153.30816 | 39901 ft | 387 kts | 233° |
| 2026-05-08 07:09 | 46.36808 | 153.24959 | 39898 ft | 387 kts | 233° |
| 2026-05-08 07:09 | 46.33253 | 153.19159 | 39906 ft | 387 kts | 232° |
| 2026-05-08 07:10 | 46.29676 | 153.13336 | 39887 ft | 387 kts | 232° |
| 2026-05-08 07:10 | 46.26090 | 153.07510 | 39902 ft | 387 kts | 232° |
| 2026-05-08 07:11 | 46.22499 | 153.01688 | 39887 ft | 388 kts | 232° |
| 2026-05-08 07:11 | 46.18897 | 152.95885 | 39897 ft | 388 kts | 232° |
| 2026-05-08 07:12 | 46.15270 | 152.90106 | 39887 ft | 388 kts | 232° |
| 2026-05-08 07:12 | 46.11666 | 152.84378 | 39885 ft | 388 kts | 232° |
| 2026-05-08 07:13 | 46.08031 | 152.78603 | 39889 ft | 388 kts | 232° |
| 2026-05-08 07:13 | 46.04398 | 152.72842 | 39884 ft | 389 kts | 232° |
| 2026-05-08 07:14 | 46.00756 | 152.67076 | 39884 ft | 389 kts | 232° |
| 2026-05-08 07:14 | 45.97114 | 152.61324 | 39882 ft | 389 kts | 231° |
| 2026-05-08 07:15 | 45.93482 | 152.55599 | 39881 ft | 389 kts | 231° |
| 2026-05-08 07:15 | 45.89825 | 152.49848 | 39877 ft | 389 kts | 231° |
| 2026-05-08 07:16 | 45.86165 | 152.44104 | 39878 ft | 390 kts | 231° |
| 2026-05-08 07:16 | 45.82501 | 152.38365 | 39874 ft | 390 kts | 231° |
| 2026-05-08 07:17 | 45.78830 | 152.32629 | 39870 ft | 390 kts | 231° |
| 2026-05-08 07:17 | 45.75186 | 152.26945 | 39868 ft | 390 kts | 231° |
| 2026-05-08 07:18 | 45.71514 | 152.21228 | 39870 ft | 390 kts | 231° |
| 2026-05-08 07:18 | 45.67832 | 152.15511 | 39866 ft | 390 kts | 231° |
| 2026-05-08 07:19 | 45.64144 | 152.09795 | 39868 ft | 390 kts | 231° |
| 2026-05-08 07:19 | 45.60456 | 152.04089 | 39869 ft | 391 kts | 231° |
| 2026-05-08 07:20 | 45.56789 | 151.98429 | 39863 ft | 391 kts | 231° |
| 2026-05-08 07:20 | 45.53084 | 151.92723 | 39859 ft | 391 kts | 230° |
| 2026-05-08 07:21 | 45.49394 | 151.87051 | 39860 ft | 391 kts | 230° |
| 2026-05-08 07:21 | 45.45682 | 151.81359 | 39861 ft | 391 kts | 230° |
| 2026-05-08 07:22 | 45.41971 | 151.75678 | 39854 ft | 392 kts | 230° |
| 2026-05-08 07:22 | 45.38273 | 151.70029 | 39856 ft | 392 kts | 230° |
| 2026-05-08 07:23 | 45.34547 | 151.64350 | 39856 ft | 392 kts | 230° |
| 2026-05-08 07:23 | 45.30821 | 151.58682 | 39853 ft | 392 kts | 230° |
| 2026-05-08 07:24 | 45.27081 | 151.53004 | 39854 ft | 392 kts | 230° |
| 2026-05-08 07:24 | 45.23344 | 151.47344 | 39852 ft | 393 kts | 230° |
| 2026-05-08 07:25 | 45.19629 | 151.41727 | 39855 ft | 393 kts | 230° |
| 2026-05-08 07:26 | 45.14005 | 151.33247 | 39852 ft | 393 kts | 230° |
| 2026-05-08 07:26 | 45.10250 | 151.27598 | 39850 ft | 393 kts | 230° |
| 2026-05-08 07:27 | 45.06489 | 151.21954 | 39850 ft | 393 kts | 230° |
| 2026-05-08 07:27 | 45.02757 | 151.16364 | 39846 ft | 393 kts | 230° |
| 2026-05-08 07:28 | 44.98994 | 151.10737 | 39847 ft | 394 kts | 230° |
| 2026-05-08 07:28 | 44.95226 | 151.05117 | 39838 ft | 394 kts | 229° |
| 2026-05-08 07:29 | 44.91448 | 150.99494 | 39846 ft | 394 kts | 229° |
| 2026-05-08 07:29 | 44.87691 | 150.93911 | 39844 ft | 394 kts | 229° |
| 2026-05-08 07:30 | 44.83911 | 150.88306 | 39842 ft | 394 kts | 229° |
| 2026-05-08 07:30 | 44.80126 | 150.82705 | 39837 ft | 394 kts | 229° |
| 2026-05-08 07:31 | 44.76353 | 150.77134 | 39840 ft | 394 kts | 229° |
| 2026-05-08 07:31 | 44.72563 | 150.71550 | 39838 ft | 394 kts | 229° |
| 2026-05-08 07:32 | 44.68760 | 150.65956 | 39835 ft | 394 kts | 229° |
| 2026-05-08 07:32 | 44.64963 | 150.60384 | 39831 ft | 394 kts | 229° |
| 2026-05-08 07:33 | 44.61190 | 150.54857 | 39833 ft | 394 kts | 229° |
| 2026-05-08 07:33 | 44.57379 | 150.49286 | 39838 ft | 394 kts | 229° |
| 2026-05-08 07:34 | 44.53571 | 150.43732 | 39828 ft | 395 kts | 229° |
| 2026-05-08 07:34 | 44.49786 | 150.38220 | 39832 ft | 395 kts | 229° |
| 2026-05-08 07:35 | 44.45966 | 150.32670 | 39830 ft | 395 kts | 229° |
| 2026-05-08 07:35 | 44.42166 | 150.27159 | 39828 ft | 395 kts | 229° |
| 2026-05-08 07:36 | 44.38346 | 150.21630 | 39831 ft | 395 kts | 229° |
| 2026-05-08 07:36 | 44.34514 | 150.16096 | 39827 ft | 395 kts | 229° |
| 2026-05-08 07:37 | 44.30709 | 150.10612 | 39825 ft | 395 kts | 229° |
| 2026-05-08 07:37 | 44.26883 | 150.05108 | 39825 ft | 395 kts | 229° |
| 2026-05-08 07:38 | 44.23050 | 149.99605 | 39823 ft | 395 kts | 228° |
| 2026-05-08 07:38 | 44.19211 | 149.94104 | 39821 ft | 395 kts | 228° |
| 2026-05-08 07:39 | 44.15396 | 149.88648 | 39816 ft | 395 kts | 228° |
| 2026-05-08 07:39 | 44.11553 | 149.83164 | 39817 ft | 395 kts | 228° |
| 2026-05-08 07:40 | 44.07705 | 149.77682 | 39816 ft | 395 kts | 228° |
| 2026-05-08 07:40 | 44.03884 | 149.72251 | 39816 ft | 395 kts | 228° |
| 2026-05-08 07:41 | 44.00029 | 149.66783 | 39817 ft | 395 kts | 228° |
| 2026-05-08 07:41 | 43.96182 | 149.61335 | 39814 ft | 395 kts | 228° |
| 2026-05-08 07:42 | 43.92971 | 149.56797 | 39814 ft | 395 kts | 228° |
| 2026-05-08 07:42 | 43.89110 | 149.51349 | 39812 ft | 395 kts | 228° |
| 2026-05-08 07:43 | 43.84619 | 149.45027 | 39810 ft | 395 kts | 228° |
| 2026-05-08 07:43 | 43.81378 | 149.40473 | 39810 ft | 395 kts | 228° |
| 2026-05-08 07:44 | 43.77533 | 149.35081 | 39808 ft | 396 kts | 227° |
| 2026-05-08 07:44 | 43.73659 | 149.29657 | 39804 ft | 396 kts | 227° |
| 2026-05-08 07:45 | 43.69804 | 149.24272 | 39802 ft | 396 kts | 227° |
| 2026-05-08 07:45 | 43.65927 | 149.18865 | 39803 ft | 395 kts | 227° |
| 2026-05-08 07:46 | 43.62051 | 149.13472 | 39805 ft | 395 kts | 227° |
| 2026-05-08 07:46 | 43.58170 | 149.08081 | 39802 ft | 395 kts | 227° |
| 2026-05-08 07:47 | 43.54287 | 149.02698 | 39804 ft | 395 kts | 227° |
| 2026-05-08 07:47 | 43.50403 | 148.97324 | 39804 ft | 395 kts | 227° |
| 2026-05-08 07:48 | 43.46539 | 148.91987 | 39801 ft | 395 kts | 227° |
| 2026-05-08 07:48 | 43.42640 | 148.86614 | 39801 ft | 395 kts | 227° |
| 2026-05-08 07:49 | 43.38769 | 148.81290 | 39803 ft | 395 kts | 227° |
| 2026-05-08 07:49 | 43.34872 | 148.75939 | 39800 ft | 395 kts | 227° |
| 2026-05-08 07:50 | 43.30971 | 148.70594 | 39801 ft | 395 kts | 227° |
| 2026-05-08 07:50 | 43.27067 | 148.65253 | 39799 ft | 395 kts | 227° |
| 2026-05-08 07:51 | 43.23193 | 148.59965 | 39800 ft | 395 kts | 227° |
| 2026-05-08 07:51 | 43.19288 | 148.54645 | 39795 ft | 395 kts | 227° |
| 2026-05-08 07:52 | 43.15380 | 148.49330 | 39800 ft | 396 kts | 227° |
| 2026-05-08 07:52 | 43.11461 | 148.44011 | 39800 ft | 396 kts | 227° |
| 2026-05-08 07:53 | 43.07573 | 148.38744 | 39804 ft | 396 kts | 227° |
| 2026-05-08 07:53 | 43.03657 | 148.33449 | 39799 ft | 396 kts | 226° |
| 2026-05-08 07:54 | 42.99732 | 148.28152 | 39800 ft | 396 kts | 226° |
| 2026-05-08 07:54 | 42.95830 | 148.22895 | 39800 ft | 396 kts | 226° |
| 2026-05-08 07:55 | 42.91894 | 148.17604 | 39803 ft | 396 kts | 226° |
| 2026-05-08 07:55 | 42.87955 | 148.12317 | 39799 ft | 397 kts | 226° |
| 2026-05-08 07:56 | 42.84015 | 148.07040 | 39797 ft | 397 kts | 226° |
| 2026-05-08 07:56 | 42.80100 | 148.01806 | 39800 ft | 397 kts | 226° |
| 2026-05-08 07:57 | 42.76151 | 147.96537 | 39799 ft | 397 kts | 226° |
| 2026-05-08 07:57 | 42.72199 | 147.91274 | 39798 ft | 398 kts | 226° |
| 2026-05-08 07:58 | 42.68242 | 147.86013 | 39797 ft | 398 kts | 226° |
| 2026-05-08 07:58 | 42.64273 | 147.80746 | 39796 ft | 398 kts | 226° |
| 2026-05-08 07:59 | 42.60303 | 147.75489 | 39796 ft | 399 kts | 226° |
| 2026-05-08 07:59 | 42.56331 | 147.70238 | 39798 ft | 399 kts | 226° |
| 2026-05-08 08:00 | 42.52366 | 147.65007 | 39798 ft | 399 kts | 226° |
| 2026-05-08 08:00 | 42.48369 | 147.59743 | 39799 ft | 400 kts | 226° |
| 2026-05-08 08:01 | 42.44366 | 147.54482 | 39792 ft | 400 kts | 226° |
| 2026-05-08 08:01 | 42.40393 | 147.49269 | 39792 ft | 400 kts | 226° |
| 2026-05-08 08:02 | 42.36385 | 147.44021 | 39796 ft | 400 kts | 226° |
| 2026-05-08 08:02 | 42.32383 | 147.38777 | 39793 ft | 401 kts | 226° |
| 2026-05-08 08:03 | 42.28376 | 147.33535 | 39792 ft | 401 kts | 226° |
| 2026-05-08 08:03 | 42.24386 | 147.28328 | 39788 ft | 401 kts | 226° |
| 2026-05-08 08:04 | 42.20373 | 147.23101 | 39788 ft | 401 kts | 226° |
| 2026-05-08 08:04 | 42.16350 | 147.17872 | 39785 ft | 401 kts | 225° |
| 2026-05-08 08:05 | 42.12317 | 147.12640 | 39791 ft | 401 kts | 225° |
| 2026-05-08 08:05 | 42.08293 | 147.07427 | 39788 ft | 402 kts | 225° |
| 2026-05-08 08:06 | 42.04284 | 147.02246 | 39787 ft | 402 kts | 225° |
| 2026-05-08 08:06 | 42.00250 | 146.97041 | 39784 ft | 402 kts | 225° |
| 2026-05-08 08:07 | 41.96205 | 146.91831 | 39795 ft | 402 kts | 225° |
| 2026-05-08 08:07 | 41.92162 | 146.86634 | 39788 ft | 402 kts | 225° |
| 2026-05-08 08:08 | 41.88143 | 146.81467 | 39786 ft | 402 kts | 225° |
| 2026-05-08 08:08 | 41.84103 | 146.76280 | 39786 ft | 402 kts | 225° |
| 2026-05-08 08:09 | 41.80052 | 146.71090 | 39786 ft | 402 kts | 225° |
| 2026-05-08 08:09 | 41.75998 | 146.65906 | 39781 ft | 402 kts | 225° |
| 2026-05-08 08:10 | 41.71967 | 146.60759 | 39782 ft | 402 kts | 225° |
| 2026-05-08 08:10 | 41.67914 | 146.55595 | 39785 ft | 402 kts | 225° |
| 2026-05-08 08:11 | 41.63850 | 146.50426 | 39783 ft | 402 kts | 225° |
| 2026-05-08 08:11 | 41.59795 | 146.45278 | 39782 ft | 402 kts | 225° |
| 2026-05-08 08:12 | 41.55761 | 146.40166 | 39778 ft | 402 kts | 225° |
| 2026-05-08 08:12 | 41.51698 | 146.35026 | 39778 ft | 402 kts | 225° |
| 2026-05-08 08:13 | 41.47633 | 146.29893 | 39780 ft | 402 kts | 225° |
| 2026-05-08 08:13 | 41.43562 | 146.24761 | 39780 ft | 402 kts | 224° |
| 2026-05-08 08:14 | 41.39488 | 146.19637 | 39778 ft | 402 kts | 224° |
| 2026-05-08 08:14 | 41.35441 | 146.14553 | 39780 ft | 402 kts | 224° |
| 2026-05-08 08:15 | 41.31357 | 146.09434 | 39777 ft | 402 kts | 224° |
| 2026-05-08 08:15 | 41.27275 | 146.04327 | 39774 ft | 402 kts | 224° |
| 2026-05-08 08:16 | 41.23186 | 145.99219 | 39774 ft | 402 kts | 224° |
| 2026-05-08 08:16 | 41.19122 | 145.94152 | 39775 ft | 402 kts | 224° |
| 2026-05-08 08:17 | 41.15033 | 145.89063 | 39773 ft | 402 kts | 224° |
| 2026-05-08 08:17 | 41.10943 | 145.83982 | 39775 ft | 402 kts | 224° |
| 2026-05-08 08:18 | 41.06880 | 145.78943 | 39772 ft | 402 kts | 224° |
| 2026-05-08 08:18 | 41.02782 | 145.73870 | 39771 ft | 402 kts | 224° |
| 2026-05-08 08:19 | 40.98682 | 145.68804 | 39770 ft | 402 kts | 224° |
| 2026-05-08 08:19 | 40.94606 | 145.63776 | 39769 ft | 402 kts | 224° |
| 2026-05-08 08:20 | 40.90508 | 145.58731 | 39771 ft | 402 kts | 224° |
| 2026-05-08 08:20 | 40.86407 | 145.53690 | 39768 ft | 402 kts | 224° |
| 2026-05-08 08:21 | 40.82300 | 145.48650 | 39767 ft | 402 kts | 224° |
| 2026-05-08 08:21 | 40.78221 | 145.43655 | 39767 ft | 402 kts | 224° |
| 2026-05-08 08:22 | 40.74109 | 145.38627 | 39769 ft | 402 kts | 224° |
| 2026-05-08 08:22 | 40.70000 | 145.33612 | 39770 ft | 402 kts | 224° |
| 2026-05-08 08:23 | 40.65887 | 145.28601 | 39765 ft | 402 kts | 224° |
| 2026-05-08 08:23 | 40.61769 | 145.23594 | 39766 ft | 402 kts | 224° |
| 2026-05-08 08:24 | 40.57680 | 145.18629 | 39767 ft | 402 kts | 224° |
| 2026-05-08 08:24 | 40.53560 | 145.13635 | 39763 ft | 402 kts | 224° |
| 2026-05-08 08:25 | 40.49435 | 145.08645 | 39758 ft | 402 kts | 224° |
| 2026-05-08 08:25 | 40.45314 | 145.03669 | 39761 ft | 402 kts | 224° |
| 2026-05-08 08:26 | 40.41192 | 144.98700 | 39759 ft | 402 kts | 224° |
| 2026-05-08 08:26 | 40.37067 | 144.93743 | 39752 ft | 402 kts | 224° |
| 2026-05-08 08:27 | 40.32972 | 144.88816 | 39748 ft | 402 kts | 224° |
| 2026-05-08 08:27 | 40.28837 | 144.83852 | 39748 ft | 402 kts | 224° |
| 2026-05-08 08:28 | 40.24706 | 144.78904 | 39753 ft | 402 kts | 224° |
| 2026-05-08 08:28 | 40.20592 | 144.73986 | 39744 ft | 402 kts | 224° |
| 2026-05-08 08:29 | 40.16453 | 144.69047 | 39746 ft | 402 kts | 224° |
| 2026-05-08 08:29 | 40.12308 | 144.64108 | 39747 ft | 403 kts | 224° |
| 2026-05-08 08:30 | 40.08177 | 144.59195 | 39744 ft | 403 kts | 224° |
| 2026-05-08 08:30 | 40.01956 | 144.51813 | 39758 ft | 403 kts | 224° |
| 2026-05-08 08:31 | 39.98501 | 144.47720 | 39737 ft | 403 kts | 224° |
| 2026-05-08 08:31 | 39.94348 | 144.42809 | 39750 ft | 403 kts | 224° |
| 2026-05-08 08:32 | 39.90193 | 144.37905 | 39749 ft | 403 kts | 224° |
| 2026-05-08 08:32 | 39.86033 | 144.33002 | 39741 ft | 403 kts | 224° |
| 2026-05-08 08:33 | 39.81889 | 144.28127 | 39746 ft | 403 kts | 224° |
| 2026-05-08 08:33 | 39.77703 | 144.23211 | 39740 ft | 403 kts | 224° |
| 2026-05-08 08:34 | 39.73564 | 144.18358 | 39740 ft | 403 kts | 224° |
| 2026-05-08 08:34 | 39.69397 | 144.13481 | 39734 ft | 403 kts | 224° |
| 2026-05-08 08:35 | 39.65228 | 144.08609 | 39737 ft | 403 kts | 224° |
| 2026-05-08 08:35 | 39.61066 | 144.03755 | 39738 ft | 402 kts | 224° |
| 2026-05-08 08:36 | 39.56926 | 143.98933 | 39739 ft | 402 kts | 224° |
| 2026-05-08 08:36 | 39.52748 | 143.94076 | 39739 ft | 402 kts | 224° |
| 2026-05-08 08:37 | 39.48599 | 143.89260 | 39739 ft | 402 kts | 224° |
| 2026-05-08 08:37 | 39.44420 | 143.84418 | 39735 ft | 402 kts | 224° |
| 2026-05-08 08:38 | 39.40256 | 143.79601 | 39741 ft | 401 kts | 224° |
| 2026-05-08 08:38 | 39.36118 | 143.74823 | 39742 ft | 401 kts | 224° |
| 2026-05-08 08:39 | 39.31947 | 143.70014 | 39742 ft | 401 kts | 224° |
| 2026-05-08 08:39 | 39.27778 | 143.65215 | 39739 ft | 401 kts | 224° |
| 2026-05-08 08:40 | 39.23615 | 143.60432 | 39741 ft | 400 kts | 224° |
| 2026-05-08 08:40 | 39.19473 | 143.55681 | 39741 ft | 400 kts | 224° |
| 2026-05-08 08:41 | 39.15306 | 143.50907 | 39743 ft | 400 kts | 224° |
| 2026-05-08 08:41 | 39.11168 | 143.46177 | 39739 ft | 399 kts | 224° |
| 2026-05-08 08:42 | 39.07004 | 143.41423 | 39742 ft | 399 kts | 224° |
| 2026-05-08 08:42 | 39.02847 | 143.36686 | 39740 ft | 399 kts | 224° |
| 2026-05-08 08:43 | 38.98706 | 143.31974 | 39739 ft | 399 kts | 224° |
| 2026-05-08 08:43 | 38.94521 | 143.27277 | 39736 ft | 399 kts | 221° |
| 2026-05-08 08:44 | 38.89781 | 143.23474 | 39737 ft | 406 kts | 210° |
| 2026-05-08 08:44 | 38.84308 | 143.21320 | 39736 ft | 417 kts | 199° |
| 2026-05-08 08:45 | 38.78611 | 143.20006 | 39733 ft | 420 kts | 197° |
| 2026-05-08 08:45 | 38.72833 | 143.18789 | 39733 ft | 420 kts | 197° |
| 2026-05-08 08:46 | 38.67081 | 143.17551 | 39730 ft | 419 kts | 198° |
| 2026-05-08 08:46 | 38.61329 | 143.16283 | 39730 ft | 419 kts | 198° |
| 2026-05-08 08:47 | 38.55582 | 143.15006 | 39731 ft | 419 kts | 198° |
| 2026-05-08 08:47 | 38.49868 | 143.13739 | 39731 ft | 419 kts | 198° |
| 2026-05-08 08:48 | 38.44115 | 143.12467 | 39731 ft | 419 kts | 198° |
| 2026-05-08 08:48 | 38.38369 | 143.11200 | 39727 ft | 419 kts | 198° |
| 2026-05-08 08:49 | 38.32616 | 143.09933 | 39728 ft | 419 kts | 198° |
| 2026-05-08 08:49 | 38.26859 | 143.08667 | 39725 ft | 419 kts | 198° |
| 2026-05-08 08:50 | 38.21110 | 143.07405 | 39727 ft | 419 kts | 198° |
| 2026-05-08 08:50 | 38.15386 | 143.06151 | 39725 ft | 419 kts | 198° |
| 2026-05-08 08:51 | 38.09640 | 143.04893 | 39723 ft | 419 kts | 199° |
| 2026-05-08 08:51 | 38.03891 | 143.03638 | 39722 ft | 419 kts | 199° |
| 2026-05-08 08:52 | 37.98135 | 143.02382 | 39718 ft | 419 kts | 199° |
| 2026-05-08 08:52 | 37.92407 | 143.01134 | 39718 ft | 419 kts | 199° |
| 2026-05-08 08:53 | 37.86650 | 142.99883 | 39720 ft | 419 kts | 199° |
| 2026-05-08 08:53 | 37.80920 | 142.98639 | 39720 ft | 420 kts | 199° |
| 2026-05-08 08:54 | 37.75155 | 142.97389 | 39718 ft | 420 kts | 199° |
| 2026-05-08 08:54 | 37.69382 | 142.96140 | 39714 ft | 420 kts | 199° |
| 2026-05-08 08:55 | 37.63620 | 142.94895 | 39716 ft | 420 kts | 199° |
| 2026-05-08 08:55 | 37.57879 | 142.93657 | 39719 ft | 421 kts | 199° |
| 2026-05-08 08:56 | 37.52103 | 142.92413 | 39721 ft | 421 kts | 199° |
| 2026-05-08 08:56 | 37.46318 | 142.91169 | 39717 ft | 421 kts | 199° |
| 2026-05-08 08:57 | 37.40540 | 142.89928 | 39721 ft | 421 kts | 199° |
| 2026-05-08 08:57 | 37.34745 | 142.88687 | 39718 ft | 421 kts | 199° |
| 2026-05-08 08:58 | 37.28995 | 142.87457 | 39714 ft | 422 kts | 199° |
| 2026-05-08 08:58 | 37.23209 | 142.86228 | 39719 ft | 422 kts | 199° |
| 2026-05-08 08:59 | 37.17396 | 142.84988 | 39714 ft | 422 kts | 199° |
| 2026-05-08 08:59 | 37.11755 | 142.83368 | 39717 ft | 411 kts | 208° |
| 2026-05-08 09:00 | 37.06659 | 142.80381 | 39716 ft | 402 kts | 216° |
| 2026-05-08 09:00 | 37.01780 | 142.76960 | 39714 ft | 401 kts | 217° |
| 2026-05-08 09:01 | 36.96969 | 142.73516 | 39712 ft | 401 kts | 217° |
| 2026-05-08 09:01 | 36.92122 | 142.70076 | 39718 ft | 400 kts | 217° |
| 2026-05-08 09:02 | 36.87250 | 142.66645 | 39721 ft | 400 kts | 217° |
| 2026-05-08 09:02 | 36.82397 | 142.63239 | 39715 ft | 400 kts | 217° |
| 2026-05-08 09:03 | 36.77563 | 142.59852 | 39718 ft | 400 kts | 217° |
| 2026-05-08 09:03 | 36.72705 | 142.56451 | 39716 ft | 400 kts | 217° |
| 2026-05-08 09:04 | 36.67838 | 142.53049 | 39721 ft | 401 kts | 217° |
| 2026-05-08 09:04 | 36.62962 | 142.49645 | 39721 ft | 401 kts | 217° |
| 2026-05-08 09:05 | 36.58092 | 142.46251 | 39717 ft | 401 kts | 217° |
| 2026-05-08 09:05 | 36.53239 | 142.42874 | 39720 ft | 402 kts | 217° |
| 2026-05-08 09:06 | 36.48350 | 142.39477 | 39720 ft | 402 kts | 217° |
| 2026-05-08 09:06 | 36.43489 | 142.36104 | 39724 ft | 402 kts | 217° |
| 2026-05-08 09:07 | 36.38588 | 142.32708 | 39727 ft | 402 kts | 217° |
| 2026-05-08 09:07 | 36.33696 | 142.29323 | 39728 ft | 403 kts | 217° |
| 2026-05-08 09:08 | 36.28799 | 142.25940 | 39729 ft | 403 kts | 217° |
| 2026-05-08 09:08 | 36.23920 | 142.22583 | 39729 ft | 403 kts | 217° |
| 2026-05-08 09:09 | 36.19011 | 142.19199 | 39731 ft | 403 kts | 217° |
| 2026-05-08 09:09 | 36.14104 | 142.15822 | 39730 ft | 403 kts | 217° |
| 2026-05-08 09:10 | 36.09505 | 142.12037 | 39734 ft | 395 kts | 226° |
| 2026-05-08 09:10 | 36.05850 | 142.07103 | 39735 ft | 387 kts | 238° |
| 2026-05-08 09:11 | 36.03309 | 142.01277 | 39738 ft | 385 kts | 246° |
| 2026-05-08 09:11 | 36.01136 | 141.95228 | 39736 ft | 385 kts | 247° |
| 2026-05-08 09:12 | 35.98989 | 141.89154 | 39735 ft | 385 kts | 246° |
| 2026-05-08 09:12 | 35.96820 | 141.83104 | 39732 ft | 385 kts | 246° |
| 2026-05-08 09:13 | 35.94972 | 141.76904 | 39735 ft | 386 kts | 255° |
| 2026-05-08 09:13 | 35.94423 | 141.70297 | 39728 ft | 390 kts | 265° |
| 2026-05-08 09:14 | 35.94423 | 141.63638 | 39725 ft | 391 kts | 266° |
| 2026-05-08 09:14 | 35.94495 | 141.56922 | 39724 ft | 391 kts | 266° |
| 2026-05-08 09:15 | 35.94549 | 141.50193 | 39722 ft | 391 kts | 265° |
| 2026-05-08 09:15 | 35.94580 | 141.43488 | 39717 ft | 390 kts | 265° |
| 2026-05-08 09:16 | 35.94601 | 141.36827 | 39714 ft | 390 kts | 265° |
| 2026-05-08 09:16 | 35.94619 | 141.30131 | 39707 ft | 390 kts | 265° |
| 2026-05-08 09:17 | 35.94633 | 141.23426 | 39704 ft | 390 kts | 265° |
| 2026-05-08 09:17 | 35.94650 | 141.16734 | 39707 ft | 390 kts | 265° |
| 2026-05-08 09:18 | 35.94656 | 141.10076 | 39701 ft | 390 kts | 265° |
| 2026-05-08 09:18 | 35.94657 | 141.03384 | 39697 ft | 390 kts | 265° |
| 2026-05-08 09:19 | 35.94868 | 140.97801 | 39698 ft | 397 kts | 273° |
| 2026-05-08 09:19 | 35.96026 | 140.93405 | 39701 ft | 412 kts | 287° |
| 2026-05-08 09:19 | 35.96901 | 140.91311 | 39691 ft | 416 kts | 289° |
| 2026-05-08 09:20 | 35.99939 | 140.85154 | 39682 ft | 422 kts | 292° |
| 2026-05-08 09:20 | 36.03158 | 140.79063 | 39675 ft | 423 kts | 292° |
| 2026-05-08 09:21 | 36.06345 | 140.72941 | 39676 ft | 423 kts | 292° |
| 2026-05-08 09:23 | 36.17310 | 140.51343 | 39668 ft | 425 kts | 291° |
| 2026-05-08 09:23 | 36.20428 | 140.45170 | 39660 ft | 425 kts | 291° |
| 2026-05-08 09:24 | 36.23573 | 140.38942 | 39662 ft | 426 kts | 291° |
| 2026-05-08 09:24 | 36.26719 | 140.32709 | 39672 ft | 426 kts | 291° |
| 2026-05-08 09:25 | 36.29865 | 140.26474 | 39669 ft | 427 kts | 291° |
| 2026-05-08 09:25 | 36.33015 | 140.20227 | 39668 ft | 427 kts | 291° |
| 2026-05-08 09:26 | 36.36144 | 140.14020 | 39672 ft | 427 kts | 291° |
| 2026-05-08 09:26 | 36.39290 | 140.07769 | 39679 ft | 427 kts | 291° |
| 2026-05-08 09:27 | 36.42445 | 140.01495 | 39682 ft | 428 kts | 291° |
| 2026-05-08 09:27 | 36.45594 | 139.95228 | 39684 ft | 428 kts | 291° |